<?xml version="1.0" encoding="UTF-8" standalone="no" ?>
<gpx xmlns="http://www.topografix.com/GPX/1/1" xmlns:xsi="http://www.w3.org/2001/XMLSchema-instance" xsi:schemaLocation="http://www.topografix.com/GPX/1/1 http://www.topografix.com/GPX/1/1/gpx.xsd" version="1.1" creator="VisuGPX - https://www.visugpx.com">
  <metadata>
    <name>De Artigues (Campan) à Payolle </name>
    <desc><![CDATA[Très facile et très jolie balade entre deux vallées et quasiment à l'horizontale. D'une part, celle de La Mongie / Tourmalet, et de l'autre la vallée de Payolle / Aspin, mais un aller simple.
Les détails sur : http://cm64.over-blog.fr/de-artigues-à-payolle--région-de-campan]]></desc>
  </metadata>
  <trk>
    <name><![CDATA[Tracé actuel: 27 JUIN 2013 10:06]]></name>
    <trkseg>
      <trkpt lat="42.92685" lon="0.20235">
        <ele>1209.48</ele>
        <time>2013-06-27T08:06:41Z</time>
      </trkpt>
      <trkpt lat="42.92684" lon="0.20225">
        <ele>1218.13</ele>
        <time>2013-06-27T08:08:52Z</time>
      </trkpt>
      <trkpt lat="42.92686" lon="0.20218">
        <ele>1217.65</ele>
        <time>2013-06-27T08:13:20Z</time>
      </trkpt>
      <trkpt lat="42.92681" lon="0.20206">
        <ele>1218.13</ele>
        <time>2013-06-27T08:13:45Z</time>
      </trkpt>
      <trkpt lat="42.92673" lon="0.20203">
        <ele>1219.09</ele>
        <time>2013-06-27T08:13:56Z</time>
      </trkpt>
      <trkpt lat="42.92664" lon="0.20209">
        <ele>1219.09</ele>
        <time>2013-06-27T08:14:05Z</time>
      </trkpt>
      <trkpt lat="42.92659" lon="0.2022">
        <ele>1220.53</ele>
        <time>2013-06-27T08:14:16Z</time>
      </trkpt>
      <trkpt lat="42.9266" lon="0.20233">
        <ele>1223.42</ele>
        <time>2013-06-27T08:14:28Z</time>
      </trkpt>
      <trkpt lat="42.92662" lon="0.20246">
        <ele>1222.45</ele>
        <time>2013-06-27T08:14:39Z</time>
      </trkpt>
      <trkpt lat="42.92666" lon="0.20257">
        <ele>1221.49</ele>
        <time>2013-06-27T08:14:49Z</time>
      </trkpt>
      <trkpt lat="42.92666" lon="0.20269">
        <ele>1221.01</ele>
        <time>2013-06-27T08:14:59Z</time>
      </trkpt>
      <trkpt lat="42.92668" lon="0.20281">
        <ele>1220.05</ele>
        <time>2013-06-27T08:15:10Z</time>
      </trkpt>
      <trkpt lat="42.92666" lon="0.20294">
        <ele>1219.09</ele>
        <time>2013-06-27T08:15:19Z</time>
      </trkpt>
      <trkpt lat="42.92666" lon="0.20307">
        <ele>1218.13</ele>
        <time>2013-06-27T08:15:26Z</time>
      </trkpt>
      <trkpt lat="42.92664" lon="0.20321">
        <ele>1219.09</ele>
        <time>2013-06-27T08:15:33Z</time>
      </trkpt>
      <trkpt lat="42.92665" lon="0.20333">
        <ele>1219.57</ele>
        <time>2013-06-27T08:15:40Z</time>
      </trkpt>
      <trkpt lat="42.92665" lon="0.20344">
        <ele>1221.49</ele>
        <time>2013-06-27T08:15:48Z</time>
      </trkpt>
      <trkpt lat="42.92663" lon="0.20355">
        <ele>1222.93</ele>
        <time>2013-06-27T08:15:57Z</time>
      </trkpt>
      <trkpt lat="42.92659" lon="0.20367">
        <ele>1223.42</ele>
        <time>2013-06-27T08:16:07Z</time>
      </trkpt>
      <trkpt lat="42.92656" lon="0.20379">
        <ele>1225.34</ele>
        <time>2013-06-27T08:16:17Z</time>
      </trkpt>
      <trkpt lat="42.92652" lon="0.20392">
        <ele>1226.3</ele>
        <time>2013-06-27T08:16:28Z</time>
      </trkpt>
      <trkpt lat="42.92648" lon="0.20405">
        <ele>1226.78</ele>
        <time>2013-06-27T08:16:39Z</time>
      </trkpt>
      <trkpt lat="42.92644" lon="0.20416">
        <ele>1228.22</ele>
        <time>2013-06-27T08:16:50Z</time>
      </trkpt>
      <trkpt lat="42.92634" lon="0.20422">
        <ele>1228.22</ele>
        <time>2013-06-27T08:17:03Z</time>
      </trkpt>
      <trkpt lat="42.92623" lon="0.20423">
        <ele>1228.7</ele>
        <time>2013-06-27T08:17:13Z</time>
      </trkpt>
      <trkpt lat="42.92614" lon="0.20428">
        <ele>1229.66</ele>
        <time>2013-06-27T08:17:23Z</time>
      </trkpt>
      <trkpt lat="42.92606" lon="0.20433">
        <ele>1231.59</ele>
        <time>2013-06-27T08:17:47Z</time>
      </trkpt>
      <trkpt lat="42.92601" lon="0.20439">
        <ele>1233.51</ele>
        <time>2013-06-27T08:18:00Z</time>
      </trkpt>
      <trkpt lat="42.92595" lon="0.20448">
        <ele>1234.95</ele>
        <time>2013-06-27T08:18:14Z</time>
      </trkpt>
      <trkpt lat="42.92587" lon="0.20454">
        <ele>1237.35</ele>
        <time>2013-06-27T08:18:27Z</time>
      </trkpt>
      <trkpt lat="42.92581" lon="0.20464">
        <ele>1238.32</ele>
        <time>2013-06-27T08:18:37Z</time>
      </trkpt>
      <trkpt lat="42.92576" lon="0.20473">
        <ele>1239.76</ele>
        <time>2013-06-27T08:18:46Z</time>
      </trkpt>
      <trkpt lat="42.92572" lon="0.20483">
        <ele>1241.68</ele>
        <time>2013-06-27T08:18:58Z</time>
      </trkpt>
      <trkpt lat="42.92565" lon="0.20492">
        <ele>1245.04</ele>
        <time>2013-06-27T08:19:21Z</time>
      </trkpt>
      <trkpt lat="42.92561" lon="0.20497">
        <ele>1246.97</ele>
        <time>2013-06-27T08:19:36Z</time>
      </trkpt>
      <trkpt lat="42.92552" lon="0.20503">
        <ele>1247.93</ele>
        <time>2013-06-27T08:19:45Z</time>
      </trkpt>
      <trkpt lat="42.92542" lon="0.20509">
        <ele>1251.77</ele>
        <time>2013-06-27T08:20:20Z</time>
      </trkpt>
      <trkpt lat="42.92542" lon="0.20519">
        <ele>1252.74</ele>
        <time>2013-06-27T08:20:35Z</time>
      </trkpt>
      <trkpt lat="42.92529" lon="0.20523">
        <ele>1247.45</ele>
        <time>2013-06-27T08:21:10Z</time>
      </trkpt>
      <trkpt lat="42.92519" lon="0.20525">
        <ele>1245.53</ele>
        <time>2013-06-27T08:21:17Z</time>
      </trkpt>
      <trkpt lat="42.92523" lon="0.2052">
        <ele>1249.37</ele>
        <time>2013-06-27T08:23:26Z</time>
      </trkpt>
      <trkpt lat="42.92526" lon="0.20509">
        <ele>1251.77</ele>
        <time>2013-06-27T08:24:15Z</time>
      </trkpt>
      <trkpt lat="42.92531" lon="0.20497">
        <ele>1249.37</ele>
        <time>2013-06-27T08:24:47Z</time>
      </trkpt>
      <trkpt lat="42.92537" lon="0.20491">
        <ele>1247.93</ele>
        <time>2013-06-27T08:24:57Z</time>
      </trkpt>
      <trkpt lat="42.92547" lon="0.20484">
        <ele>1246.97</ele>
        <time>2013-06-27T08:25:08Z</time>
      </trkpt>
      <trkpt lat="42.92555" lon="0.20478">
        <ele>1246.49</ele>
        <time>2013-06-27T08:25:15Z</time>
      </trkpt>
      <trkpt lat="42.92559" lon="0.20471">
        <ele>1244.08</ele>
        <time>2013-06-27T08:25:24Z</time>
      </trkpt>
      <trkpt lat="42.92572" lon="0.2047">
        <ele>1243.12</ele>
        <time>2013-06-27T08:25:33Z</time>
      </trkpt>
      <trkpt lat="42.92576" lon="0.20462">
        <ele>1241.2</ele>
        <time>2013-06-27T08:25:54Z</time>
      </trkpt>
      <trkpt lat="42.92582" lon="0.20455">
        <ele>1239.76</ele>
        <time>2013-06-27T08:26:04Z</time>
      </trkpt>
      <trkpt lat="42.9259" lon="0.2045">
        <ele>1238.8</ele>
        <time>2013-06-27T08:26:14Z</time>
      </trkpt>
      <trkpt lat="42.92594" lon="0.20442">
        <ele>1237.35</ele>
        <time>2013-06-27T08:26:24Z</time>
      </trkpt>
      <trkpt lat="42.92598" lon="0.20434">
        <ele>1235.91</ele>
        <time>2013-06-27T08:26:38Z</time>
      </trkpt>
      <trkpt lat="42.92603" lon="0.20425">
        <ele>1234.47</ele>
        <time>2013-06-27T08:26:48Z</time>
      </trkpt>
      <trkpt lat="42.92611" lon="0.2042">
        <ele>1232.55</ele>
        <time>2013-06-27T08:27:00Z</time>
      </trkpt>
      <trkpt lat="42.92621" lon="0.20419">
        <ele>1230.62</ele>
        <time>2013-06-27T08:27:10Z</time>
      </trkpt>
      <trkpt lat="42.92633" lon="0.20421">
        <ele>1229.18</ele>
        <time>2013-06-27T08:27:20Z</time>
      </trkpt>
      <trkpt lat="42.92634" lon="0.20427">
        <ele>1229.66</ele>
        <time>2013-06-27T08:27:32Z</time>
      </trkpt>
      <trkpt lat="42.92633" lon="0.20438">
        <ele>1227.26</ele>
        <time>2013-06-27T08:27:45Z</time>
      </trkpt>
      <trkpt lat="42.92631" lon="0.20449">
        <ele>1226.78</ele>
        <time>2013-06-27T08:27:56Z</time>
      </trkpt>
      <trkpt lat="42.92625" lon="0.20458">
        <ele>1226.3</ele>
        <time>2013-06-27T08:28:05Z</time>
      </trkpt>
      <trkpt lat="42.92617" lon="0.20461">
        <ele>1226.78</ele>
        <time>2013-06-27T08:28:26Z</time>
      </trkpt>
      <trkpt lat="42.9261" lon="0.20468">
        <ele>1227.26</ele>
        <time>2013-06-27T08:28:36Z</time>
      </trkpt>
      <trkpt lat="42.92602" lon="0.20475">
        <ele>1227.26</ele>
        <time>2013-06-27T08:28:46Z</time>
      </trkpt>
      <trkpt lat="42.926" lon="0.20485">
        <ele>1226.3</ele>
        <time>2013-06-27T08:28:58Z</time>
      </trkpt>
      <trkpt lat="42.92606" lon="0.20496">
        <ele>1226.3</ele>
        <time>2013-06-27T08:29:08Z</time>
      </trkpt>
      <trkpt lat="42.9261" lon="0.20506">
        <ele>1227.74</ele>
        <time>2013-06-27T08:29:18Z</time>
      </trkpt>
      <trkpt lat="42.92614" lon="0.20516">
        <ele>1229.18</ele>
        <time>2013-06-27T08:29:28Z</time>
      </trkpt>
      <trkpt lat="42.92617" lon="0.20523">
        <ele>1230.14</ele>
        <time>2013-06-27T08:30:20Z</time>
      </trkpt>
      <trkpt lat="42.9262" lon="0.20535">
        <ele>1231.59</ele>
        <time>2013-06-27T08:30:33Z</time>
      </trkpt>
      <trkpt lat="42.92625" lon="0.20545">
        <ele>1234.47</ele>
        <time>2013-06-27T08:30:46Z</time>
      </trkpt>
      <trkpt lat="42.92633" lon="0.20553">
        <ele>1237.35</ele>
        <time>2013-06-27T08:31:00Z</time>
      </trkpt>
      <trkpt lat="42.9264" lon="0.20564">
        <ele>1240.24</ele>
        <time>2013-06-27T08:31:18Z</time>
      </trkpt>
      <trkpt lat="42.92642" lon="0.20575">
        <ele>1243.12</ele>
        <time>2013-06-27T08:31:33Z</time>
      </trkpt>
      <trkpt lat="42.92646" lon="0.20585">
        <ele>1245.53</ele>
        <time>2013-06-27T08:31:50Z</time>
      </trkpt>
      <trkpt lat="42.92654" lon="0.20593">
        <ele>1247.93</ele>
        <time>2013-06-27T08:32:02Z</time>
      </trkpt>
      <trkpt lat="42.9266" lon="0.20599">
        <ele>1248.89</ele>
        <time>2013-06-27T08:32:15Z</time>
      </trkpt>
      <trkpt lat="42.92666" lon="0.20603">
        <ele>1251.29</ele>
        <time>2013-06-27T08:32:30Z</time>
      </trkpt>
      <trkpt lat="42.92673" lon="0.20608">
        <ele>1253.22</ele>
        <time>2013-06-27T08:32:43Z</time>
      </trkpt>
      <trkpt lat="42.92683" lon="0.20614">
        <ele>1255.14</ele>
        <time>2013-06-27T08:32:57Z</time>
      </trkpt>
      <trkpt lat="42.92689" lon="0.20621">
        <ele>1256.58</ele>
        <time>2013-06-27T08:33:10Z</time>
      </trkpt>
      <trkpt lat="42.92696" lon="0.2062">
        <ele>1256.58</ele>
        <time>2013-06-27T08:34:46Z</time>
      </trkpt>
      <trkpt lat="42.927" lon="0.20613">
        <ele>1259.46</ele>
        <time>2013-06-27T08:34:57Z</time>
      </trkpt>
      <trkpt lat="42.92707" lon="0.20608">
        <ele>1261.39</ele>
        <time>2013-06-27T08:35:08Z</time>
      </trkpt>
      <trkpt lat="42.92715" lon="0.20602">
        <ele>1263.31</ele>
        <time>2013-06-27T08:35:22Z</time>
      </trkpt>
      <trkpt lat="42.92725" lon="0.20599">
        <ele>1264.75</ele>
        <time>2013-06-27T08:35:37Z</time>
      </trkpt>
      <trkpt lat="42.92733" lon="0.20595">
        <ele>1267.16</ele>
        <time>2013-06-27T08:35:50Z</time>
      </trkpt>
      <trkpt lat="42.92741" lon="0.20594">
        <ele>1269.56</ele>
        <time>2013-06-27T08:36:01Z</time>
      </trkpt>
      <trkpt lat="42.92748" lon="0.20591">
        <ele>1272.44</ele>
        <time>2013-06-27T08:38:57Z</time>
      </trkpt>
      <trkpt lat="42.92759" lon="0.20591">
        <ele>1271.96</ele>
        <time>2013-06-27T08:39:08Z</time>
      </trkpt>
      <trkpt lat="42.92771" lon="0.2059">
        <ele>1272.44</ele>
        <time>2013-06-27T08:39:18Z</time>
      </trkpt>
      <trkpt lat="42.92782" lon="0.20585">
        <ele>1271.96</ele>
        <time>2013-06-27T08:39:28Z</time>
      </trkpt>
      <trkpt lat="42.92791" lon="0.20584">
        <ele>1271.96</ele>
        <time>2013-06-27T08:39:38Z</time>
      </trkpt>
      <trkpt lat="42.928" lon="0.20585">
        <ele>1272.44</ele>
        <time>2013-06-27T08:39:48Z</time>
      </trkpt>
      <trkpt lat="42.9281" lon="0.20587">
        <ele>1271.48</ele>
        <time>2013-06-27T08:39:57Z</time>
      </trkpt>
      <trkpt lat="42.92819" lon="0.20592">
        <ele>1271.48</ele>
        <time>2013-06-27T08:40:06Z</time>
      </trkpt>
      <trkpt lat="42.92828" lon="0.20596">
        <ele>1271.48</ele>
        <time>2013-06-27T08:40:15Z</time>
      </trkpt>
      <trkpt lat="42.92837" lon="0.206">
        <ele>1271</ele>
        <time>2013-06-27T08:40:23Z</time>
      </trkpt>
      <trkpt lat="42.92847" lon="0.20602">
        <ele>1271</ele>
        <time>2013-06-27T08:40:33Z</time>
      </trkpt>
      <trkpt lat="42.92857" lon="0.20603">
        <ele>1270.52</ele>
        <time>2013-06-27T08:40:41Z</time>
      </trkpt>
      <trkpt lat="42.92868" lon="0.20606">
        <ele>1270.52</ele>
        <time>2013-06-27T08:40:52Z</time>
      </trkpt>
      <trkpt lat="42.92877" lon="0.20609">
        <ele>1270.52</ele>
        <time>2013-06-27T08:41:02Z</time>
      </trkpt>
      <trkpt lat="42.92887" lon="0.20614">
        <ele>1270.52</ele>
        <time>2013-06-27T08:41:11Z</time>
      </trkpt>
      <trkpt lat="42.92897" lon="0.2062">
        <ele>1270.52</ele>
        <time>2013-06-27T08:41:20Z</time>
      </trkpt>
      <trkpt lat="42.92914" lon="0.20632">
        <ele>1270.52</ele>
        <time>2013-06-27T08:41:29Z</time>
      </trkpt>
      <trkpt lat="42.92927" lon="0.20639">
        <ele>1270.04</ele>
        <time>2013-06-27T08:41:37Z</time>
      </trkpt>
      <trkpt lat="42.92934" lon="0.20648">
        <ele>1270.04</ele>
        <time>2013-06-27T08:41:48Z</time>
      </trkpt>
      <trkpt lat="42.9294" lon="0.20659">
        <ele>1270.04</ele>
        <time>2013-06-27T08:41:56Z</time>
      </trkpt>
      <trkpt lat="42.92952" lon="0.20669">
        <ele>1269.56</ele>
        <time>2013-06-27T08:42:06Z</time>
      </trkpt>
      <trkpt lat="42.92958" lon="0.20678">
        <ele>1270.04</ele>
        <time>2013-06-27T08:42:15Z</time>
      </trkpt>
      <trkpt lat="42.92966" lon="0.20684">
        <ele>1269.08</ele>
        <time>2013-06-27T08:42:25Z</time>
      </trkpt>
      <trkpt lat="42.92975" lon="0.20693">
        <ele>1269.56</ele>
        <time>2013-06-27T08:42:35Z</time>
      </trkpt>
      <trkpt lat="42.92985" lon="0.20703">
        <ele>1269.08</ele>
        <time>2013-06-27T08:42:44Z</time>
      </trkpt>
      <trkpt lat="42.92993" lon="0.20712">
        <ele>1269.08</ele>
        <time>2013-06-27T08:42:54Z</time>
      </trkpt>
      <trkpt lat="42.92997" lon="0.20722">
        <ele>1269.08</ele>
        <time>2013-06-27T08:43:03Z</time>
      </trkpt>
      <trkpt lat="42.93002" lon="0.20732">
        <ele>1269.08</ele>
        <time>2013-06-27T08:43:13Z</time>
      </trkpt>
      <trkpt lat="42.93011" lon="0.20744">
        <ele>1269.08</ele>
        <time>2013-06-27T08:43:23Z</time>
      </trkpt>
      <trkpt lat="42.93018" lon="0.20754">
        <ele>1269.56</ele>
        <time>2013-06-27T08:43:32Z</time>
      </trkpt>
      <trkpt lat="42.93021" lon="0.20766">
        <ele>1269.56</ele>
        <time>2013-06-27T08:43:41Z</time>
      </trkpt>
      <trkpt lat="42.93024" lon="0.20777">
        <ele>1269.08</ele>
        <time>2013-06-27T08:43:50Z</time>
      </trkpt>
      <trkpt lat="42.93032" lon="0.20789">
        <ele>1268.12</ele>
        <time>2013-06-27T08:43:59Z</time>
      </trkpt>
      <trkpt lat="42.93037" lon="0.20797">
        <ele>1268.6</ele>
        <time>2013-06-27T08:44:09Z</time>
      </trkpt>
      <trkpt lat="42.93045" lon="0.20806">
        <ele>1267.64</ele>
        <time>2013-06-27T08:44:19Z</time>
      </trkpt>
      <trkpt lat="42.93053" lon="0.20817">
        <ele>1268.12</ele>
        <time>2013-06-27T08:44:28Z</time>
      </trkpt>
      <trkpt lat="42.93063" lon="0.20826">
        <ele>1268.12</ele>
        <time>2013-06-27T08:44:37Z</time>
      </trkpt>
      <trkpt lat="42.9307" lon="0.20836">
        <ele>1268.12</ele>
        <time>2013-06-27T08:44:46Z</time>
      </trkpt>
      <trkpt lat="42.93073" lon="0.20849">
        <ele>1268.12</ele>
        <time>2013-06-27T08:44:56Z</time>
      </trkpt>
      <trkpt lat="42.93077" lon="0.20862">
        <ele>1267.16</ele>
        <time>2013-06-27T08:45:05Z</time>
      </trkpt>
      <trkpt lat="42.93085" lon="0.20872">
        <ele>1267.16</ele>
        <time>2013-06-27T08:45:16Z</time>
      </trkpt>
      <trkpt lat="42.93093" lon="0.20882">
        <ele>1266.67</ele>
        <time>2013-06-27T08:45:27Z</time>
      </trkpt>
      <trkpt lat="42.931" lon="0.20893">
        <ele>1266.19</ele>
        <time>2013-06-27T08:45:36Z</time>
      </trkpt>
      <trkpt lat="42.93105" lon="0.20902">
        <ele>1266.19</ele>
        <time>2013-06-27T08:45:46Z</time>
      </trkpt>
      <trkpt lat="42.93113" lon="0.20912">
        <ele>1265.23</ele>
        <time>2013-06-27T08:45:56Z</time>
      </trkpt>
      <trkpt lat="42.93117" lon="0.20924">
        <ele>1265.23</ele>
        <time>2013-06-27T08:46:05Z</time>
      </trkpt>
      <trkpt lat="42.93116" lon="0.20939">
        <ele>1264.75</ele>
        <time>2013-06-27T08:46:15Z</time>
      </trkpt>
      <trkpt lat="42.93114" lon="0.20953">
        <ele>1264.27</ele>
        <time>2013-06-27T08:46:24Z</time>
      </trkpt>
      <trkpt lat="42.93116" lon="0.2097">
        <ele>1264.75</ele>
        <time>2013-06-27T08:46:35Z</time>
      </trkpt>
      <trkpt lat="42.93119" lon="0.20981">
        <ele>1264.75</ele>
        <time>2013-06-27T08:46:44Z</time>
      </trkpt>
      <trkpt lat="42.93123" lon="0.20993">
        <ele>1264.75</ele>
        <time>2013-06-27T08:46:53Z</time>
      </trkpt>
      <trkpt lat="42.93127" lon="0.21006">
        <ele>1264.75</ele>
        <time>2013-06-27T08:47:03Z</time>
      </trkpt>
      <trkpt lat="42.9313" lon="0.21018">
        <ele>1264.27</ele>
        <time>2013-06-27T08:47:12Z</time>
      </trkpt>
      <trkpt lat="42.93132" lon="0.21032">
        <ele>1264.27</ele>
        <time>2013-06-27T08:47:23Z</time>
      </trkpt>
      <trkpt lat="42.93134" lon="0.21049">
        <ele>1264.27</ele>
        <time>2013-06-27T08:47:33Z</time>
      </trkpt>
      <trkpt lat="42.93133" lon="0.21063">
        <ele>1264.27</ele>
        <time>2013-06-27T08:47:42Z</time>
      </trkpt>
      <trkpt lat="42.93135" lon="0.21076">
        <ele>1263.79</ele>
        <time>2013-06-27T08:47:50Z</time>
      </trkpt>
      <trkpt lat="42.93142" lon="0.21083">
        <ele>1264.27</ele>
        <time>2013-06-27T08:47:59Z</time>
      </trkpt>
      <trkpt lat="42.93147" lon="0.21094">
        <ele>1263.31</ele>
        <time>2013-06-27T08:48:07Z</time>
      </trkpt>
      <trkpt lat="42.93149" lon="0.2111">
        <ele>1263.79</ele>
        <time>2013-06-27T08:48:17Z</time>
      </trkpt>
      <trkpt lat="42.93148" lon="0.21127">
        <ele>1263.31</ele>
        <time>2013-06-27T08:48:27Z</time>
      </trkpt>
      <trkpt lat="42.93146" lon="0.2114">
        <ele>1263.31</ele>
        <time>2013-06-27T08:48:35Z</time>
      </trkpt>
      <trkpt lat="42.93145" lon="0.21151">
        <ele>1263.79</ele>
        <time>2013-06-27T08:48:44Z</time>
      </trkpt>
      <trkpt lat="42.93146" lon="0.2116">
        <ele>1263.79</ele>
        <time>2013-06-27T08:48:55Z</time>
      </trkpt>
      <trkpt lat="42.93155" lon="0.21164">
        <ele>1263.79</ele>
        <time>2013-06-27T08:49:06Z</time>
      </trkpt>
      <trkpt lat="42.93164" lon="0.21169">
        <ele>1263.31</ele>
        <time>2013-06-27T08:49:16Z</time>
      </trkpt>
      <trkpt lat="42.93173" lon="0.21176">
        <ele>1263.31</ele>
        <time>2013-06-27T08:49:25Z</time>
      </trkpt>
      <trkpt lat="42.93182" lon="0.21187">
        <ele>1263.31</ele>
        <time>2013-06-27T08:49:34Z</time>
      </trkpt>
      <trkpt lat="42.93188" lon="0.21198">
        <ele>1262.83</ele>
        <time>2013-06-27T08:49:43Z</time>
      </trkpt>
      <trkpt lat="42.93198" lon="0.2121">
        <ele>1262.83</ele>
        <time>2013-06-27T08:49:52Z</time>
      </trkpt>
      <trkpt lat="42.93206" lon="0.21218">
        <ele>1263.31</ele>
        <time>2013-06-27T08:50:01Z</time>
      </trkpt>
      <trkpt lat="42.93211" lon="0.21229">
        <ele>1262.83</ele>
        <time>2013-06-27T08:50:10Z</time>
      </trkpt>
      <trkpt lat="42.93217" lon="0.2124">
        <ele>1262.35</ele>
        <time>2013-06-27T08:50:19Z</time>
      </trkpt>
      <trkpt lat="42.93225" lon="0.21248">
        <ele>1262.35</ele>
        <time>2013-06-27T08:50:28Z</time>
      </trkpt>
      <trkpt lat="42.93233" lon="0.21257">
        <ele>1261.87</ele>
        <time>2013-06-27T08:50:36Z</time>
      </trkpt>
      <trkpt lat="42.9324" lon="0.21268">
        <ele>1261.39</ele>
        <time>2013-06-27T08:50:47Z</time>
      </trkpt>
      <trkpt lat="42.93248" lon="0.21277">
        <ele>1261.39</ele>
        <time>2013-06-27T08:50:56Z</time>
      </trkpt>
      <trkpt lat="42.93254" lon="0.21286">
        <ele>1260.91</ele>
        <time>2013-06-27T08:51:05Z</time>
      </trkpt>
      <trkpt lat="42.93263" lon="0.21293">
        <ele>1260.91</ele>
        <time>2013-06-27T08:51:13Z</time>
      </trkpt>
      <trkpt lat="42.93269" lon="0.21305">
        <ele>1260.91</ele>
        <time>2013-06-27T08:51:22Z</time>
      </trkpt>
      <trkpt lat="42.93275" lon="0.21316">
        <ele>1260.43</ele>
        <time>2013-06-27T08:51:31Z</time>
      </trkpt>
      <trkpt lat="42.9328" lon="0.21329">
        <ele>1260.91</ele>
        <time>2013-06-27T08:51:40Z</time>
      </trkpt>
      <trkpt lat="42.93284" lon="0.21342">
        <ele>1260.91</ele>
        <time>2013-06-27T08:51:50Z</time>
      </trkpt>
      <trkpt lat="42.93291" lon="0.21352">
        <ele>1260.43</ele>
        <time>2013-06-27T08:52:00Z</time>
      </trkpt>
      <trkpt lat="42.933" lon="0.21361">
        <ele>1260.43</ele>
        <time>2013-06-27T08:52:09Z</time>
      </trkpt>
      <trkpt lat="42.93311" lon="0.21365">
        <ele>1259.94</ele>
        <time>2013-06-27T08:52:18Z</time>
      </trkpt>
      <trkpt lat="42.93321" lon="0.21368">
        <ele>1259.94</ele>
        <time>2013-06-27T08:52:27Z</time>
      </trkpt>
      <trkpt lat="42.9333" lon="0.21373">
        <ele>1259.46</ele>
        <time>2013-06-27T08:52:38Z</time>
      </trkpt>
      <trkpt lat="42.9334" lon="0.2138">
        <ele>1259.46</ele>
        <time>2013-06-27T08:52:47Z</time>
      </trkpt>
      <trkpt lat="42.93348" lon="0.21389">
        <ele>1259.46</ele>
        <time>2013-06-27T08:52:56Z</time>
      </trkpt>
      <trkpt lat="42.93355" lon="0.21398">
        <ele>1259.46</ele>
        <time>2013-06-27T08:53:05Z</time>
      </trkpt>
      <trkpt lat="42.93362" lon="0.21407">
        <ele>1259.46</ele>
        <time>2013-06-27T08:53:15Z</time>
      </trkpt>
      <trkpt lat="42.93372" lon="0.21415">
        <ele>1258.5</ele>
        <time>2013-06-27T08:53:23Z</time>
      </trkpt>
      <trkpt lat="42.93375" lon="0.21426">
        <ele>1259.46</ele>
        <time>2013-06-27T08:53:33Z</time>
      </trkpt>
      <trkpt lat="42.93382" lon="0.21436">
        <ele>1258.98</ele>
        <time>2013-06-27T08:53:44Z</time>
      </trkpt>
      <trkpt lat="42.93387" lon="0.21447">
        <ele>1258.5</ele>
        <time>2013-06-27T08:53:53Z</time>
      </trkpt>
      <trkpt lat="42.93393" lon="0.21458">
        <ele>1258.5</ele>
        <time>2013-06-27T08:54:02Z</time>
      </trkpt>
      <trkpt lat="42.93401" lon="0.21466">
        <ele>1258.02</ele>
        <time>2013-06-27T08:54:11Z</time>
      </trkpt>
      <trkpt lat="42.93409" lon="0.21475">
        <ele>1258.02</ele>
        <time>2013-06-27T08:54:20Z</time>
      </trkpt>
      <trkpt lat="42.93415" lon="0.21487">
        <ele>1258.02</ele>
        <time>2013-06-27T08:54:29Z</time>
      </trkpt>
      <trkpt lat="42.9342" lon="0.21499">
        <ele>1257.54</ele>
        <time>2013-06-27T08:54:39Z</time>
      </trkpt>
      <trkpt lat="42.93426" lon="0.21509">
        <ele>1258.02</ele>
        <time>2013-06-27T08:54:48Z</time>
      </trkpt>
      <trkpt lat="42.93435" lon="0.21521">
        <ele>1257.54</ele>
        <time>2013-06-27T08:54:57Z</time>
      </trkpt>
      <trkpt lat="42.93439" lon="0.21532">
        <ele>1257.06</ele>
        <time>2013-06-27T08:55:06Z</time>
      </trkpt>
      <trkpt lat="42.93446" lon="0.21542">
        <ele>1257.54</ele>
        <time>2013-06-27T08:55:15Z</time>
      </trkpt>
      <trkpt lat="42.93451" lon="0.21554">
        <ele>1257.06</ele>
        <time>2013-06-27T08:55:24Z</time>
      </trkpt>
      <trkpt lat="42.93455" lon="0.21566">
        <ele>1256.1</ele>
        <time>2013-06-27T08:55:33Z</time>
      </trkpt>
      <trkpt lat="42.9346" lon="0.21579">
        <ele>1256.1</ele>
        <time>2013-06-27T08:55:42Z</time>
      </trkpt>
      <trkpt lat="42.93467" lon="0.21591">
        <ele>1256.1</ele>
        <time>2013-06-27T08:55:52Z</time>
      </trkpt>
      <trkpt lat="42.93471" lon="0.21601">
        <ele>1256.1</ele>
        <time>2013-06-27T08:56:01Z</time>
      </trkpt>
      <trkpt lat="42.93475" lon="0.21613">
        <ele>1256.1</ele>
        <time>2013-06-27T08:56:11Z</time>
      </trkpt>
      <trkpt lat="42.93481" lon="0.21623">
        <ele>1256.1</ele>
        <time>2013-06-27T08:56:19Z</time>
      </trkpt>
      <trkpt lat="42.93485" lon="0.21635">
        <ele>1255.62</ele>
        <time>2013-06-27T08:56:28Z</time>
      </trkpt>
      <trkpt lat="42.93491" lon="0.21646">
        <ele>1254.66</ele>
        <time>2013-06-27T08:56:36Z</time>
      </trkpt>
      <trkpt lat="42.93496" lon="0.21658">
        <ele>1255.14</ele>
        <time>2013-06-27T08:56:45Z</time>
      </trkpt>
      <trkpt lat="42.935" lon="0.21669">
        <ele>1255.14</ele>
        <time>2013-06-27T08:56:55Z</time>
      </trkpt>
      <trkpt lat="42.93506" lon="0.21681">
        <ele>1255.14</ele>
        <time>2013-06-27T08:57:05Z</time>
      </trkpt>
      <trkpt lat="42.93509" lon="0.21696">
        <ele>1254.66</ele>
        <time>2013-06-27T08:57:14Z</time>
      </trkpt>
      <trkpt lat="42.93514" lon="0.21708">
        <ele>1254.66</ele>
        <time>2013-06-27T08:57:22Z</time>
      </trkpt>
      <trkpt lat="42.93515" lon="0.21721">
        <ele>1255.14</ele>
        <time>2013-06-27T08:57:31Z</time>
      </trkpt>
      <trkpt lat="42.93515" lon="0.21733">
        <ele>1254.66</ele>
        <time>2013-06-27T08:57:41Z</time>
      </trkpt>
      <trkpt lat="42.93516" lon="0.21744">
        <ele>1254.18</ele>
        <time>2013-06-27T08:57:51Z</time>
      </trkpt>
      <trkpt lat="42.93519" lon="0.21757">
        <ele>1253.7</ele>
        <time>2013-06-27T08:58:04Z</time>
      </trkpt>
      <trkpt lat="42.9352" lon="0.21771">
        <ele>1253.7</ele>
        <time>2013-06-27T08:58:13Z</time>
      </trkpt>
      <trkpt lat="42.93521" lon="0.21785">
        <ele>1254.18</ele>
        <time>2013-06-27T08:58:23Z</time>
      </trkpt>
      <trkpt lat="42.93524" lon="0.21797">
        <ele>1253.7</ele>
        <time>2013-06-27T08:58:33Z</time>
      </trkpt>
      <trkpt lat="42.93528" lon="0.2181">
        <ele>1254.18</ele>
        <time>2013-06-27T08:58:44Z</time>
      </trkpt>
      <trkpt lat="42.93528" lon="0.21823">
        <ele>1253.7</ele>
        <time>2013-06-27T08:58:54Z</time>
      </trkpt>
      <trkpt lat="42.93526" lon="0.21835">
        <ele>1253.7</ele>
        <time>2013-06-27T08:59:05Z</time>
      </trkpt>
      <trkpt lat="42.93524" lon="0.21847">
        <ele>1254.18</ele>
        <time>2013-06-27T08:59:16Z</time>
      </trkpt>
      <trkpt lat="42.93527" lon="0.21859">
        <ele>1254.66</ele>
        <time>2013-06-27T08:59:29Z</time>
      </trkpt>
      <trkpt lat="42.93527" lon="0.21873">
        <ele>1255.14</ele>
        <time>2013-06-27T08:59:40Z</time>
      </trkpt>
      <trkpt lat="42.93526" lon="0.21881">
        <ele>1254.66</ele>
        <time>2013-06-27T09:02:49Z</time>
      </trkpt>
      <trkpt lat="42.93527" lon="0.21892">
        <ele>1254.66</ele>
        <time>2013-06-27T09:03:02Z</time>
      </trkpt>
      <trkpt lat="42.93536" lon="0.21896">
        <ele>1254.66</ele>
        <time>2013-06-27T09:03:15Z</time>
      </trkpt>
      <trkpt lat="42.93544" lon="0.21892">
        <ele>1254.18</ele>
        <time>2013-06-27T09:03:26Z</time>
      </trkpt>
      <trkpt lat="42.93552" lon="0.21883">
        <ele>1253.7</ele>
        <time>2013-06-27T09:03:36Z</time>
      </trkpt>
      <trkpt lat="42.93562" lon="0.21878">
        <ele>1252.74</ele>
        <time>2013-06-27T09:03:45Z</time>
      </trkpt>
      <trkpt lat="42.93573" lon="0.21871">
        <ele>1252.25</ele>
        <time>2013-06-27T09:03:54Z</time>
      </trkpt>
      <trkpt lat="42.93583" lon="0.21869">
        <ele>1251.77</ele>
        <time>2013-06-27T09:04:03Z</time>
      </trkpt>
      <trkpt lat="42.93592" lon="0.21868">
        <ele>1251.29</ele>
        <time>2013-06-27T09:04:13Z</time>
      </trkpt>
      <trkpt lat="42.936" lon="0.21864">
        <ele>1251.29</ele>
        <time>2013-06-27T09:04:21Z</time>
      </trkpt>
      <trkpt lat="42.93611" lon="0.21864">
        <ele>1251.29</ele>
        <time>2013-06-27T09:04:31Z</time>
      </trkpt>
      <trkpt lat="42.93621" lon="0.21868">
        <ele>1251.29</ele>
        <time>2013-06-27T09:04:41Z</time>
      </trkpt>
      <trkpt lat="42.93634" lon="0.21866">
        <ele>1250.81</ele>
        <time>2013-06-27T09:04:50Z</time>
      </trkpt>
      <trkpt lat="42.93645" lon="0.21874">
        <ele>1250.33</ele>
        <time>2013-06-27T09:05:01Z</time>
      </trkpt>
      <trkpt lat="42.93657" lon="0.21878">
        <ele>1250.33</ele>
        <time>2013-06-27T09:05:11Z</time>
      </trkpt>
      <trkpt lat="42.93666" lon="0.21886">
        <ele>1250.33</ele>
        <time>2013-06-27T09:05:21Z</time>
      </trkpt>
      <trkpt lat="42.93673" lon="0.21897">
        <ele>1250.33</ele>
        <time>2013-06-27T09:05:32Z</time>
      </trkpt>
      <trkpt lat="42.93674" lon="0.21911">
        <ele>1250.33</ele>
        <time>2013-06-27T09:05:41Z</time>
      </trkpt>
      <trkpt lat="42.93676" lon="0.21923">
        <ele>1250.33</ele>
        <time>2013-06-27T09:05:56Z</time>
      </trkpt>
      <trkpt lat="42.93673" lon="0.21938">
        <ele>1250.33</ele>
        <time>2013-06-27T09:06:06Z</time>
      </trkpt>
      <trkpt lat="42.93669" lon="0.21955">
        <ele>1249.85</ele>
        <time>2013-06-27T09:06:18Z</time>
      </trkpt>
      <trkpt lat="42.93657" lon="0.21963">
        <ele>1251.29</ele>
        <time>2013-06-27T09:06:30Z</time>
      </trkpt>
      <trkpt lat="42.93655" lon="0.21978">
        <ele>1251.29</ele>
        <time>2013-06-27T09:06:43Z</time>
      </trkpt>
      <trkpt lat="42.93659" lon="0.21982">
        <ele>1251.77</ele>
        <time>2013-06-27T09:07:36Z</time>
      </trkpt>
      <trkpt lat="42.9367" lon="0.21983">
        <ele>1250.33</ele>
        <time>2013-06-27T09:07:45Z</time>
      </trkpt>
      <trkpt lat="42.93681" lon="0.21985">
        <ele>1249.85</ele>
        <time>2013-06-27T09:07:55Z</time>
      </trkpt>
      <trkpt lat="42.93693" lon="0.21986">
        <ele>1248.89</ele>
        <time>2013-06-27T09:08:05Z</time>
      </trkpt>
      <trkpt lat="42.93705" lon="0.21986">
        <ele>1249.85</ele>
        <time>2013-06-27T09:08:15Z</time>
      </trkpt>
      <trkpt lat="42.93717" lon="0.2199">
        <ele>1249.37</ele>
        <time>2013-06-27T09:08:24Z</time>
      </trkpt>
      <trkpt lat="42.93726" lon="0.21994">
        <ele>1248.41</ele>
        <time>2013-06-27T09:08:32Z</time>
      </trkpt>
      <trkpt lat="42.93736" lon="0.21996">
        <ele>1248.89</ele>
        <time>2013-06-27T09:08:40Z</time>
      </trkpt>
      <trkpt lat="42.93745" lon="0.21997">
        <ele>1248.41</ele>
        <time>2013-06-27T09:08:49Z</time>
      </trkpt>
      <trkpt lat="42.93752" lon="0.22011">
        <ele>1248.89</ele>
        <time>2013-06-27T09:08:57Z</time>
      </trkpt>
      <trkpt lat="42.93754" lon="0.22027">
        <ele>1248.41</ele>
        <time>2013-06-27T09:09:06Z</time>
      </trkpt>
      <trkpt lat="42.9375" lon="0.22042">
        <ele>1248.41</ele>
        <time>2013-06-27T09:09:14Z</time>
      </trkpt>
      <trkpt lat="42.93747" lon="0.22056">
        <ele>1247.93</ele>
        <time>2013-06-27T09:09:23Z</time>
      </trkpt>
      <trkpt lat="42.93743" lon="0.22069">
        <ele>1247.93</ele>
        <time>2013-06-27T09:09:31Z</time>
      </trkpt>
      <trkpt lat="42.93743" lon="0.22082">
        <ele>1247.45</ele>
        <time>2013-06-27T09:09:39Z</time>
      </trkpt>
      <trkpt lat="42.93744" lon="0.22094">
        <ele>1247.45</ele>
        <time>2013-06-27T09:09:47Z</time>
      </trkpt>
      <trkpt lat="42.93749" lon="0.22101">
        <ele>1246.49</ele>
        <time>2013-06-27T09:09:55Z</time>
      </trkpt>
      <trkpt lat="42.93755" lon="0.2211">
        <ele>1246.97</ele>
        <time>2013-06-27T09:10:03Z</time>
      </trkpt>
      <trkpt lat="42.93764" lon="0.22118">
        <ele>1246.49</ele>
        <time>2013-06-27T09:10:12Z</time>
      </trkpt>
      <trkpt lat="42.93771" lon="0.22129">
        <ele>1246.49</ele>
        <time>2013-06-27T09:10:21Z</time>
      </trkpt>
      <trkpt lat="42.93774" lon="0.2214">
        <ele>1246.97</ele>
        <time>2013-06-27T09:10:29Z</time>
      </trkpt>
      <trkpt lat="42.93774" lon="0.22154">
        <ele>1247.45</ele>
        <time>2013-06-27T09:10:39Z</time>
      </trkpt>
      <trkpt lat="42.93781" lon="0.22156">
        <ele>1246.97</ele>
        <time>2013-06-27T09:10:49Z</time>
      </trkpt>
      <trkpt lat="42.93789" lon="0.22147">
        <ele>1246.97</ele>
        <time>2013-06-27T09:10:59Z</time>
      </trkpt>
      <trkpt lat="42.93801" lon="0.2215">
        <ele>1246.49</ele>
        <time>2013-06-27T09:11:08Z</time>
      </trkpt>
      <trkpt lat="42.9381" lon="0.22148">
        <ele>1246.01</ele>
        <time>2013-06-27T09:11:16Z</time>
      </trkpt>
      <trkpt lat="42.93819" lon="0.22149">
        <ele>1246.01</ele>
        <time>2013-06-27T09:11:28Z</time>
      </trkpt>
      <trkpt lat="42.93833" lon="0.22157">
        <ele>1245.53</ele>
        <time>2013-06-27T09:11:39Z</time>
      </trkpt>
      <trkpt lat="42.93842" lon="0.22166">
        <ele>1245.04</ele>
        <time>2013-06-27T09:11:48Z</time>
      </trkpt>
      <trkpt lat="42.9385" lon="0.2218">
        <ele>1245.04</ele>
        <time>2013-06-27T09:11:56Z</time>
      </trkpt>
      <trkpt lat="42.93856" lon="0.22191">
        <ele>1244.56</ele>
        <time>2013-06-27T09:12:04Z</time>
      </trkpt>
      <trkpt lat="42.93857" lon="0.22202">
        <ele>1244.56</ele>
        <time>2013-06-27T09:12:13Z</time>
      </trkpt>
      <trkpt lat="42.93859" lon="0.22216">
        <ele>1244.56</ele>
        <time>2013-06-27T09:12:23Z</time>
      </trkpt>
      <trkpt lat="42.9386" lon="0.2223">
        <ele>1244.08</ele>
        <time>2013-06-27T09:12:33Z</time>
      </trkpt>
      <trkpt lat="42.93861" lon="0.22247">
        <ele>1244.08</ele>
        <time>2013-06-27T09:12:42Z</time>
      </trkpt>
      <trkpt lat="42.93863" lon="0.22261">
        <ele>1243.6</ele>
        <time>2013-06-27T09:12:50Z</time>
      </trkpt>
      <trkpt lat="42.93866" lon="0.22273">
        <ele>1243.6</ele>
        <time>2013-06-27T09:12:58Z</time>
      </trkpt>
      <trkpt lat="42.93871" lon="0.22286">
        <ele>1243.6</ele>
        <time>2013-06-27T09:13:07Z</time>
      </trkpt>
      <trkpt lat="42.93875" lon="0.22296">
        <ele>1243.6</ele>
        <time>2013-06-27T09:13:16Z</time>
      </trkpt>
      <trkpt lat="42.93877" lon="0.22309">
        <ele>1243.12</ele>
        <time>2013-06-27T09:13:24Z</time>
      </trkpt>
      <trkpt lat="42.93879" lon="0.22323">
        <ele>1243.12</ele>
        <time>2013-06-27T09:13:32Z</time>
      </trkpt>
      <trkpt lat="42.93882" lon="0.22337">
        <ele>1242.64</ele>
        <time>2013-06-27T09:13:41Z</time>
      </trkpt>
      <trkpt lat="42.93885" lon="0.22348">
        <ele>1242.64</ele>
        <time>2013-06-27T09:13:49Z</time>
      </trkpt>
      <trkpt lat="42.93892" lon="0.22358">
        <ele>1242.64</ele>
        <time>2013-06-27T09:13:58Z</time>
      </trkpt>
      <trkpt lat="42.93897" lon="0.2237">
        <ele>1242.64</ele>
        <time>2013-06-27T09:14:06Z</time>
      </trkpt>
      <trkpt lat="42.93902" lon="0.22381">
        <ele>1242.16</ele>
        <time>2013-06-27T09:14:15Z</time>
      </trkpt>
      <trkpt lat="42.93907" lon="0.22392">
        <ele>1242.16</ele>
        <time>2013-06-27T09:14:24Z</time>
      </trkpt>
      <trkpt lat="42.93912" lon="0.22403">
        <ele>1241.2</ele>
        <time>2013-06-27T09:14:33Z</time>
      </trkpt>
      <trkpt lat="42.93917" lon="0.22413">
        <ele>1241.68</ele>
        <time>2013-06-27T09:14:41Z</time>
      </trkpt>
      <trkpt lat="42.93922" lon="0.22424">
        <ele>1241.68</ele>
        <time>2013-06-27T09:14:50Z</time>
      </trkpt>
      <trkpt lat="42.93926" lon="0.22436">
        <ele>1241.2</ele>
        <time>2013-06-27T09:15:00Z</time>
      </trkpt>
      <trkpt lat="42.93934" lon="0.22444">
        <ele>1241.2</ele>
        <time>2013-06-27T09:15:09Z</time>
      </trkpt>
      <trkpt lat="42.9394" lon="0.22452">
        <ele>1240.72</ele>
        <time>2013-06-27T09:15:17Z</time>
      </trkpt>
      <trkpt lat="42.93948" lon="0.22458">
        <ele>1240.24</ele>
        <time>2013-06-27T09:15:25Z</time>
      </trkpt>
      <trkpt lat="42.93954" lon="0.22466">
        <ele>1240.24</ele>
        <time>2013-06-27T09:15:35Z</time>
      </trkpt>
      <trkpt lat="42.93962" lon="0.22469">
        <ele>1240.24</ele>
        <time>2013-06-27T09:15:46Z</time>
      </trkpt>
      <trkpt lat="42.93971" lon="0.22478">
        <ele>1240.24</ele>
        <time>2013-06-27T09:15:55Z</time>
      </trkpt>
      <trkpt lat="42.93979" lon="0.22486">
        <ele>1239.76</ele>
        <time>2013-06-27T09:16:03Z</time>
      </trkpt>
      <trkpt lat="42.93988" lon="0.22491">
        <ele>1239.76</ele>
        <time>2013-06-27T09:16:14Z</time>
      </trkpt>
      <trkpt lat="42.93996" lon="0.22493">
        <ele>1239.28</ele>
        <time>2013-06-27T09:16:23Z</time>
      </trkpt>
      <trkpt lat="42.94006" lon="0.22496">
        <ele>1239.76</ele>
        <time>2013-06-27T09:16:32Z</time>
      </trkpt>
      <trkpt lat="42.94014" lon="0.22497">
        <ele>1240.24</ele>
        <time>2013-06-27T09:16:40Z</time>
      </trkpt>
      <trkpt lat="42.94022" lon="0.22497">
        <ele>1239.28</ele>
        <time>2013-06-27T09:16:48Z</time>
      </trkpt>
      <trkpt lat="42.9403" lon="0.22496">
        <ele>1239.28</ele>
        <time>2013-06-27T09:17:00Z</time>
      </trkpt>
      <trkpt lat="42.9404" lon="0.22496">
        <ele>1239.28</ele>
        <time>2013-06-27T09:17:09Z</time>
      </trkpt>
      <trkpt lat="42.9405" lon="0.22495">
        <ele>1239.28</ele>
        <time>2013-06-27T09:17:16Z</time>
      </trkpt>
      <trkpt lat="42.94059" lon="0.22495">
        <ele>1238.8</ele>
        <time>2013-06-27T09:17:25Z</time>
      </trkpt>
      <trkpt lat="42.94068" lon="0.22494">
        <ele>1238.8</ele>
        <time>2013-06-27T09:17:35Z</time>
      </trkpt>
      <trkpt lat="42.94079" lon="0.22494">
        <ele>1239.28</ele>
        <time>2013-06-27T09:17:45Z</time>
      </trkpt>
      <trkpt lat="42.94094" lon="0.22498">
        <ele>1238.8</ele>
        <time>2013-06-27T09:17:54Z</time>
      </trkpt>
      <trkpt lat="42.94106" lon="0.22507">
        <ele>1238.8</ele>
        <time>2013-06-27T09:18:02Z</time>
      </trkpt>
      <trkpt lat="42.94112" lon="0.22519">
        <ele>1238.32</ele>
        <time>2013-06-27T09:18:10Z</time>
      </trkpt>
      <trkpt lat="42.94118" lon="0.22533">
        <ele>1238.8</ele>
        <time>2013-06-27T09:18:20Z</time>
      </trkpt>
      <trkpt lat="42.94124" lon="0.22545">
        <ele>1238.8</ele>
        <time>2013-06-27T09:18:30Z</time>
      </trkpt>
      <trkpt lat="42.9413" lon="0.22552">
        <ele>1237.83</ele>
        <time>2013-06-27T09:18:40Z</time>
      </trkpt>
      <trkpt lat="42.94136" lon="0.22559">
        <ele>1237.83</ele>
        <time>2013-06-27T09:18:49Z</time>
      </trkpt>
      <trkpt lat="42.94143" lon="0.22567">
        <ele>1238.32</ele>
        <time>2013-06-27T09:18:58Z</time>
      </trkpt>
      <trkpt lat="42.94152" lon="0.22576">
        <ele>1237.35</ele>
        <time>2013-06-27T09:19:07Z</time>
      </trkpt>
      <trkpt lat="42.9416" lon="0.22586">
        <ele>1237.83</ele>
        <time>2013-06-27T09:19:15Z</time>
      </trkpt>
      <trkpt lat="42.94167" lon="0.22598">
        <ele>1237.83</ele>
        <time>2013-06-27T09:19:24Z</time>
      </trkpt>
      <trkpt lat="42.94167" lon="0.22611">
        <ele>1237.83</ele>
        <time>2013-06-27T09:19:33Z</time>
      </trkpt>
      <trkpt lat="42.94174" lon="0.22622">
        <ele>1238.32</ele>
        <time>2013-06-27T09:19:43Z</time>
      </trkpt>
      <trkpt lat="42.9418" lon="0.22631">
        <ele>1237.83</ele>
        <time>2013-06-27T09:19:51Z</time>
      </trkpt>
      <trkpt lat="42.94187" lon="0.2264">
        <ele>1237.83</ele>
        <time>2013-06-27T09:19:59Z</time>
      </trkpt>
      <trkpt lat="42.94192" lon="0.22651">
        <ele>1237.35</ele>
        <time>2013-06-27T09:20:08Z</time>
      </trkpt>
      <trkpt lat="42.94198" lon="0.22657">
        <ele>1237.35</ele>
        <time>2013-06-27T09:20:17Z</time>
      </trkpt>
      <trkpt lat="42.94208" lon="0.22661">
        <ele>1237.35</ele>
        <time>2013-06-27T09:20:26Z</time>
      </trkpt>
      <trkpt lat="42.94215" lon="0.2267">
        <ele>1236.87</ele>
        <time>2013-06-27T09:20:35Z</time>
      </trkpt>
      <trkpt lat="42.9422" lon="0.22678">
        <ele>1237.35</ele>
        <time>2013-06-27T09:24:10Z</time>
      </trkpt>
      <trkpt lat="42.94227" lon="0.22686">
        <ele>1237.83</ele>
        <time>2013-06-27T09:24:24Z</time>
      </trkpt>
      <trkpt lat="42.94239" lon="0.22691">
        <ele>1236.87</ele>
        <time>2013-06-27T09:24:34Z</time>
      </trkpt>
      <trkpt lat="42.94245" lon="0.22695">
        <ele>1236.87</ele>
        <time>2013-06-27T09:24:45Z</time>
      </trkpt>
      <trkpt lat="42.94255" lon="0.22703">
        <ele>1237.35</ele>
        <time>2013-06-27T09:24:54Z</time>
      </trkpt>
      <trkpt lat="42.94264" lon="0.22715">
        <ele>1236.87</ele>
        <time>2013-06-27T09:25:04Z</time>
      </trkpt>
      <trkpt lat="42.94268" lon="0.22724">
        <ele>1236.87</ele>
        <time>2013-06-27T09:25:13Z</time>
      </trkpt>
      <trkpt lat="42.94278" lon="0.22733">
        <ele>1236.87</ele>
        <time>2013-06-27T09:25:23Z</time>
      </trkpt>
      <trkpt lat="42.94287" lon="0.22739">
        <ele>1236.87</ele>
        <time>2013-06-27T09:25:33Z</time>
      </trkpt>
      <trkpt lat="42.94294" lon="0.22744">
        <ele>1236.39</ele>
        <time>2013-06-27T09:25:42Z</time>
      </trkpt>
      <trkpt lat="42.94306" lon="0.22751">
        <ele>1236.39</ele>
        <time>2013-06-27T09:25:51Z</time>
      </trkpt>
      <trkpt lat="42.94313" lon="0.22755">
        <ele>1236.39</ele>
        <time>2013-06-27T09:25:59Z</time>
      </trkpt>
      <trkpt lat="42.94321" lon="0.22758">
        <ele>1236.39</ele>
        <time>2013-06-27T09:26:09Z</time>
      </trkpt>
      <trkpt lat="42.9433" lon="0.22771">
        <ele>1235.91</ele>
        <time>2013-06-27T09:26:18Z</time>
      </trkpt>
      <trkpt lat="42.94332" lon="0.22785">
        <ele>1235.91</ele>
        <time>2013-06-27T09:26:27Z</time>
      </trkpt>
      <trkpt lat="42.94329" lon="0.22799">
        <ele>1235.91</ele>
        <time>2013-06-27T09:26:35Z</time>
      </trkpt>
      <trkpt lat="42.94321" lon="0.22813">
        <ele>1234.95</ele>
        <time>2013-06-27T09:26:45Z</time>
      </trkpt>
      <trkpt lat="42.94313" lon="0.22827">
        <ele>1234.95</ele>
        <time>2013-06-27T09:26:53Z</time>
      </trkpt>
      <trkpt lat="42.94308" lon="0.22838">
        <ele>1234.95</ele>
        <time>2013-06-27T09:27:02Z</time>
      </trkpt>
      <trkpt lat="42.94304" lon="0.22848">
        <ele>1234.95</ele>
        <time>2013-06-27T09:27:11Z</time>
      </trkpt>
      <trkpt lat="42.94297" lon="0.22858">
        <ele>1234.95</ele>
        <time>2013-06-27T09:27:20Z</time>
      </trkpt>
      <trkpt lat="42.94291" lon="0.22866">
        <ele>1234.47</ele>
        <time>2013-06-27T09:27:27Z</time>
      </trkpt>
      <trkpt lat="42.94282" lon="0.22878">
        <ele>1234.47</ele>
        <time>2013-06-27T09:27:37Z</time>
      </trkpt>
      <trkpt lat="42.94278" lon="0.22892">
        <ele>1233.99</ele>
        <time>2013-06-27T09:27:47Z</time>
      </trkpt>
      <trkpt lat="42.94272" lon="0.22903">
        <ele>1233.51</ele>
        <time>2013-06-27T09:27:56Z</time>
      </trkpt>
      <trkpt lat="42.9427" lon="0.2291">
        <ele>1233.51</ele>
        <time>2013-06-27T09:28:05Z</time>
      </trkpt>
      <trkpt lat="42.94266" lon="0.22922">
        <ele>1233.99</ele>
        <time>2013-06-27T09:28:13Z</time>
      </trkpt>
      <trkpt lat="42.94264" lon="0.22929">
        <ele>1233.51</ele>
        <time>2013-06-27T09:28:32Z</time>
      </trkpt>
      <trkpt lat="42.94257" lon="0.22943">
        <ele>1233.51</ele>
        <time>2013-06-27T09:29:52Z</time>
      </trkpt>
      <trkpt lat="42.94256" lon="0.22954">
        <ele>1233.51</ele>
        <time>2013-06-27T09:30:03Z</time>
      </trkpt>
      <trkpt lat="42.94252" lon="0.22963">
        <ele>1233.03</ele>
        <time>2013-06-27T09:30:40Z</time>
      </trkpt>
      <trkpt lat="42.94251" lon="0.22975">
        <ele>1232.55</ele>
        <time>2013-06-27T09:30:52Z</time>
      </trkpt>
      <trkpt lat="42.94251" lon="0.22991">
        <ele>1232.55</ele>
        <time>2013-06-27T09:31:02Z</time>
      </trkpt>
      <trkpt lat="42.94249" lon="0.23007">
        <ele>1232.55</ele>
        <time>2013-06-27T09:31:13Z</time>
      </trkpt>
      <trkpt lat="42.94242" lon="0.23021">
        <ele>1232.07</ele>
        <time>2013-06-27T09:31:26Z</time>
      </trkpt>
      <trkpt lat="42.94238" lon="0.23036">
        <ele>1232.07</ele>
        <time>2013-06-27T09:31:39Z</time>
      </trkpt>
      <trkpt lat="42.94241" lon="0.23044">
        <ele>1232.07</ele>
        <time>2013-06-27T09:31:51Z</time>
      </trkpt>
      <trkpt lat="42.94252" lon="0.23047">
        <ele>1232.07</ele>
        <time>2013-06-27T09:32:02Z</time>
      </trkpt>
      <trkpt lat="42.94266" lon="0.23055">
        <ele>1231.59</ele>
        <time>2013-06-27T09:32:12Z</time>
      </trkpt>
      <trkpt lat="42.94273" lon="0.23064">
        <ele>1231.11</ele>
        <time>2013-06-27T09:32:22Z</time>
      </trkpt>
      <trkpt lat="42.94282" lon="0.23068">
        <ele>1231.11</ele>
        <time>2013-06-27T09:32:32Z</time>
      </trkpt>
      <trkpt lat="42.94294" lon="0.23076">
        <ele>1231.11</ele>
        <time>2013-06-27T09:32:43Z</time>
      </trkpt>
      <trkpt lat="42.94306" lon="0.23081">
        <ele>1230.62</ele>
        <time>2013-06-27T09:32:52Z</time>
      </trkpt>
      <trkpt lat="42.94312" lon="0.23086">
        <ele>1230.62</ele>
        <time>2013-06-27T09:33:13Z</time>
      </trkpt>
      <trkpt lat="42.94321" lon="0.23089">
        <ele>1230.62</ele>
        <time>2013-06-27T09:33:23Z</time>
      </trkpt>
      <trkpt lat="42.94332" lon="0.23094">
        <ele>1230.62</ele>
        <time>2013-06-27T09:33:32Z</time>
      </trkpt>
      <trkpt lat="42.94343" lon="0.23097">
        <ele>1230.14</ele>
        <time>2013-06-27T09:33:42Z</time>
      </trkpt>
      <trkpt lat="42.94355" lon="0.231">
        <ele>1230.14</ele>
        <time>2013-06-27T09:33:52Z</time>
      </trkpt>
      <trkpt lat="42.94368" lon="0.23101">
        <ele>1230.14</ele>
        <time>2013-06-27T09:34:01Z</time>
      </trkpt>
      <trkpt lat="42.94377" lon="0.23099">
        <ele>1230.14</ele>
        <time>2013-06-27T09:34:10Z</time>
      </trkpt>
      <trkpt lat="42.94385" lon="0.23095">
        <ele>1229.66</ele>
        <time>2013-06-27T09:34:21Z</time>
      </trkpt>
      <trkpt lat="42.94396" lon="0.23097">
        <ele>1230.14</ele>
        <time>2013-06-27T09:34:33Z</time>
      </trkpt>
      <trkpt lat="42.94405" lon="0.23099">
        <ele>1230.14</ele>
        <time>2013-06-27T09:34:42Z</time>
      </trkpt>
      <trkpt lat="42.94414" lon="0.231">
        <ele>1229.66</ele>
        <time>2013-06-27T09:34:50Z</time>
      </trkpt>
      <trkpt lat="42.94423" lon="0.23101">
        <ele>1229.18</ele>
        <time>2013-06-27T09:34:59Z</time>
      </trkpt>
      <trkpt lat="42.94433" lon="0.23106">
        <ele>1229.66</ele>
        <time>2013-06-27T09:35:06Z</time>
      </trkpt>
      <trkpt lat="42.94444" lon="0.23117">
        <ele>1230.14</ele>
        <time>2013-06-27T09:35:16Z</time>
      </trkpt>
      <trkpt lat="42.94449" lon="0.23129">
        <ele>1229.66</ele>
        <time>2013-06-27T09:35:25Z</time>
      </trkpt>
      <trkpt lat="42.94456" lon="0.23136">
        <ele>1229.18</ele>
        <time>2013-06-27T09:35:34Z</time>
      </trkpt>
      <trkpt lat="42.9446" lon="0.23148">
        <ele>1229.18</ele>
        <time>2013-06-27T09:35:42Z</time>
      </trkpt>
      <trkpt lat="42.94465" lon="0.23158">
        <ele>1228.7</ele>
        <time>2013-06-27T09:35:52Z</time>
      </trkpt>
      <trkpt lat="42.94471" lon="0.23167">
        <ele>1228.7</ele>
        <time>2013-06-27T09:36:00Z</time>
      </trkpt>
      <trkpt lat="42.94475" lon="0.23178">
        <ele>1228.22</ele>
        <time>2013-06-27T09:36:08Z</time>
      </trkpt>
      <trkpt lat="42.94481" lon="0.23188">
        <ele>1227.74</ele>
        <time>2013-06-27T09:36:16Z</time>
      </trkpt>
      <trkpt lat="42.94487" lon="0.23198">
        <ele>1227.74</ele>
        <time>2013-06-27T09:36:25Z</time>
      </trkpt>
      <trkpt lat="42.94488" lon="0.23212">
        <ele>1227.26</ele>
        <time>2013-06-27T09:36:34Z</time>
      </trkpt>
      <trkpt lat="42.94488" lon="0.23225">
        <ele>1227.26</ele>
        <time>2013-06-27T09:36:43Z</time>
      </trkpt>
      <trkpt lat="42.94484" lon="0.23237">
        <ele>1227.26</ele>
        <time>2013-06-27T09:36:52Z</time>
      </trkpt>
      <trkpt lat="42.94482" lon="0.23249">
        <ele>1227.74</ele>
        <time>2013-06-27T09:37:00Z</time>
      </trkpt>
      <trkpt lat="42.9448" lon="0.23261">
        <ele>1228.22</ele>
        <time>2013-06-27T09:37:08Z</time>
      </trkpt>
      <trkpt lat="42.94478" lon="0.23274">
        <ele>1228.7</ele>
        <time>2013-06-27T09:37:16Z</time>
      </trkpt>
      <trkpt lat="42.94476" lon="0.23286">
        <ele>1229.66</ele>
        <time>2013-06-27T09:37:24Z</time>
      </trkpt>
      <trkpt lat="42.94474" lon="0.23299">
        <ele>1229.66</ele>
        <time>2013-06-27T09:37:32Z</time>
      </trkpt>
      <trkpt lat="42.94472" lon="0.23312">
        <ele>1230.14</ele>
        <time>2013-06-27T09:37:40Z</time>
      </trkpt>
      <trkpt lat="42.94471" lon="0.23325">
        <ele>1230.62</ele>
        <time>2013-06-27T09:37:48Z</time>
      </trkpt>
      <trkpt lat="42.9447" lon="0.23338">
        <ele>1230.62</ele>
        <time>2013-06-27T09:37:56Z</time>
      </trkpt>
      <trkpt lat="42.94468" lon="0.23351">
        <ele>1232.07</ele>
        <time>2013-06-27T09:38:04Z</time>
      </trkpt>
      <trkpt lat="42.94468" lon="0.23364">
        <ele>1232.07</ele>
        <time>2013-06-27T09:38:12Z</time>
      </trkpt>
      <trkpt lat="42.94468" lon="0.23377">
        <ele>1233.03</ele>
        <time>2013-06-27T09:38:20Z</time>
      </trkpt>
      <trkpt lat="42.94471" lon="0.23389">
        <ele>1233.51</ele>
        <time>2013-06-27T09:38:27Z</time>
      </trkpt>
      <trkpt lat="42.94474" lon="0.23402">
        <ele>1233.99</ele>
        <time>2013-06-27T09:38:35Z</time>
      </trkpt>
      <trkpt lat="42.94478" lon="0.23414">
        <ele>1234.47</ele>
        <time>2013-06-27T09:38:43Z</time>
      </trkpt>
      <trkpt lat="42.94482" lon="0.23425">
        <ele>1234.95</ele>
        <time>2013-06-27T09:38:51Z</time>
      </trkpt>
      <trkpt lat="42.94487" lon="0.23436">
        <ele>1235.43</ele>
        <time>2013-06-27T09:38:59Z</time>
      </trkpt>
      <trkpt lat="42.94493" lon="0.23446">
        <ele>1236.39</ele>
        <time>2013-06-27T09:39:07Z</time>
      </trkpt>
      <trkpt lat="42.94498" lon="0.23457">
        <ele>1236.87</ele>
        <time>2013-06-27T09:39:15Z</time>
      </trkpt>
      <trkpt lat="42.94505" lon="0.23467">
        <ele>1237.83</ele>
        <time>2013-06-27T09:39:23Z</time>
      </trkpt>
      <trkpt lat="42.9451" lon="0.23477">
        <ele>1238.32</ele>
        <time>2013-06-27T09:39:31Z</time>
      </trkpt>
      <trkpt lat="42.94516" lon="0.23488">
        <ele>1238.8</ele>
        <time>2013-06-27T09:39:39Z</time>
      </trkpt>
      <trkpt lat="42.94522" lon="0.23497">
        <ele>1238.8</ele>
        <time>2013-06-27T09:39:46Z</time>
      </trkpt>
      <trkpt lat="42.94529" lon="0.23507">
        <ele>1239.76</ele>
        <time>2013-06-27T09:39:54Z</time>
      </trkpt>
      <trkpt lat="42.94534" lon="0.23518">
        <ele>1240.24</ele>
        <time>2013-06-27T09:40:02Z</time>
      </trkpt>
      <trkpt lat="42.94539" lon="0.23529">
        <ele>1241.2</ele>
        <time>2013-06-27T09:40:10Z</time>
      </trkpt>
      <trkpt lat="42.94545" lon="0.23539">
        <ele>1240.72</ele>
        <time>2013-06-27T09:40:18Z</time>
      </trkpt>
      <trkpt lat="42.9455" lon="0.2355">
        <ele>1241.68</ele>
        <time>2013-06-27T09:40:26Z</time>
      </trkpt>
      <trkpt lat="42.94556" lon="0.23562">
        <ele>1243.12</ele>
        <time>2013-06-27T09:40:34Z</time>
      </trkpt>
      <trkpt lat="42.94562" lon="0.23572">
        <ele>1243.12</ele>
        <time>2013-06-27T09:40:42Z</time>
      </trkpt>
      <trkpt lat="42.94568" lon="0.23583">
        <ele>1243.12</ele>
        <time>2013-06-27T09:40:50Z</time>
      </trkpt>
      <trkpt lat="42.94573" lon="0.23594">
        <ele>1243.12</ele>
        <time>2013-06-27T09:40:57Z</time>
      </trkpt>
      <trkpt lat="42.94577" lon="0.23605">
        <ele>1243.6</ele>
        <time>2013-06-27T09:41:05Z</time>
      </trkpt>
      <trkpt lat="42.94581" lon="0.23615">
        <ele>1243.6</ele>
        <time>2013-06-27T09:41:16Z</time>
      </trkpt>
      <trkpt lat="42.94584" lon="0.23618">
        <ele>1242.16</ele>
        <time>2013-06-27T09:45:00Z</time>
      </trkpt>
      <trkpt lat="42.9458" lon="0.23622">
        <ele>1243.12</ele>
        <time>2013-06-27T09:45:46Z</time>
      </trkpt>
      <trkpt lat="42.94583" lon="0.23616">
        <ele>1242.16</ele>
        <time>2013-06-27T09:47:01Z</time>
      </trkpt>
      <trkpt lat="42.94584" lon="0.23615">
        <ele>1241.68</ele>
        <time>2013-06-27T09:49:12Z</time>
      </trkpt>
      <trkpt lat="42.94584" lon="0.23629">
        <ele>1241.68</ele>
        <time>2013-06-27T09:50:09Z</time>
      </trkpt>
      <trkpt lat="42.94581" lon="0.23641">
        <ele>1241.68</ele>
        <time>2013-06-27T09:50:21Z</time>
      </trkpt>
      <trkpt lat="42.94577" lon="0.23652">
        <ele>1241.2</ele>
        <time>2013-06-27T09:50:31Z</time>
      </trkpt>
      <trkpt lat="42.94575" lon="0.23664">
        <ele>1241.68</ele>
        <time>2013-06-27T09:50:41Z</time>
      </trkpt>
      <trkpt lat="42.94574" lon="0.23676">
        <ele>1241.2</ele>
        <time>2013-06-27T09:50:51Z</time>
      </trkpt>
      <trkpt lat="42.94576" lon="0.23688">
        <ele>1241.68</ele>
        <time>2013-06-27T09:51:00Z</time>
      </trkpt>
      <trkpt lat="42.94579" lon="0.237">
        <ele>1241.68</ele>
        <time>2013-06-27T09:51:09Z</time>
      </trkpt>
      <trkpt lat="42.94584" lon="0.23711">
        <ele>1241.68</ele>
        <time>2013-06-27T09:51:18Z</time>
      </trkpt>
      <trkpt lat="42.94588" lon="0.23724">
        <ele>1241.2</ele>
        <time>2013-06-27T09:51:27Z</time>
      </trkpt>
      <trkpt lat="42.94593" lon="0.23735">
        <ele>1241.2</ele>
        <time>2013-06-27T09:51:35Z</time>
      </trkpt>
      <trkpt lat="42.94598" lon="0.23747">
        <ele>1241.2</ele>
        <time>2013-06-27T09:51:43Z</time>
      </trkpt>
      <trkpt lat="42.94602" lon="0.23758">
        <ele>1241.2</ele>
        <time>2013-06-27T09:51:51Z</time>
      </trkpt>
      <trkpt lat="42.94606" lon="0.2377">
        <ele>1240.72</ele>
        <time>2013-06-27T09:51:59Z</time>
      </trkpt>
      <trkpt lat="42.9461" lon="0.23782">
        <ele>1241.2</ele>
        <time>2013-06-27T09:52:07Z</time>
      </trkpt>
      <trkpt lat="42.94615" lon="0.23793">
        <ele>1241.2</ele>
        <time>2013-06-27T09:52:15Z</time>
      </trkpt>
      <trkpt lat="42.94619" lon="0.23806">
        <ele>1240.72</ele>
        <time>2013-06-27T09:52:23Z</time>
      </trkpt>
      <trkpt lat="42.94623" lon="0.23818">
        <ele>1240.24</ele>
        <time>2013-06-27T09:52:31Z</time>
      </trkpt>
      <trkpt lat="42.94627" lon="0.2383">
        <ele>1240.72</ele>
        <time>2013-06-27T09:52:39Z</time>
      </trkpt>
      <trkpt lat="42.9463" lon="0.23841">
        <ele>1240.72</ele>
        <time>2013-06-27T09:52:47Z</time>
      </trkpt>
      <trkpt lat="42.94633" lon="0.23853">
        <ele>1240.24</ele>
        <time>2013-06-27T09:52:55Z</time>
      </trkpt>
      <trkpt lat="42.94636" lon="0.23865">
        <ele>1240.24</ele>
        <time>2013-06-27T09:53:03Z</time>
      </trkpt>
      <trkpt lat="42.9464" lon="0.23875">
        <ele>1239.76</ele>
        <time>2013-06-27T09:53:11Z</time>
      </trkpt>
      <trkpt lat="42.94643" lon="0.23888">
        <ele>1240.24</ele>
        <time>2013-06-27T09:53:19Z</time>
      </trkpt>
      <trkpt lat="42.94646" lon="0.23901">
        <ele>1239.76</ele>
        <time>2013-06-27T09:53:27Z</time>
      </trkpt>
      <trkpt lat="42.94649" lon="0.23913">
        <ele>1239.76</ele>
        <time>2013-06-27T09:53:35Z</time>
      </trkpt>
      <trkpt lat="42.94648" lon="0.23919">
        <ele>1240.24</ele>
        <time>2013-06-27T09:53:49Z</time>
      </trkpt>
      <trkpt lat="42.94653" lon="0.23929">
        <ele>1240.24</ele>
        <time>2013-06-27T09:53:57Z</time>
      </trkpt>
      <trkpt lat="42.94655" lon="0.2394">
        <ele>1240.24</ele>
        <time>2013-06-27T09:54:06Z</time>
      </trkpt>
      <trkpt lat="42.94656" lon="0.23953">
        <ele>1239.28</ele>
        <time>2013-06-27T09:54:14Z</time>
      </trkpt>
      <trkpt lat="42.94657" lon="0.23965">
        <ele>1239.76</ele>
        <time>2013-06-27T09:54:24Z</time>
      </trkpt>
      <trkpt lat="42.94658" lon="0.23977">
        <ele>1239.28</ele>
        <time>2013-06-27T09:54:32Z</time>
      </trkpt>
      <trkpt lat="42.94659" lon="0.23991">
        <ele>1238.8</ele>
        <time>2013-06-27T09:54:41Z</time>
      </trkpt>
      <trkpt lat="42.94656" lon="0.24002">
        <ele>1238.8</ele>
        <time>2013-06-27T09:54:50Z</time>
      </trkpt>
      <trkpt lat="42.9465" lon="0.24005">
        <ele>1238.8</ele>
        <time>2013-06-27T09:55:51Z</time>
      </trkpt>
      <trkpt lat="42.94642" lon="0.24012">
        <ele>1238.32</ele>
        <time>2013-06-27T09:55:59Z</time>
      </trkpt>
      <trkpt lat="42.94633" lon="0.2401">
        <ele>1236.87</ele>
        <time>2013-06-27T09:56:07Z</time>
      </trkpt>
      <trkpt lat="42.94622" lon="0.24008">
        <ele>1236.39</ele>
        <time>2013-06-27T09:56:16Z</time>
      </trkpt>
      <trkpt lat="42.94613" lon="0.24011">
        <ele>1235.43</ele>
        <time>2013-06-27T09:56:24Z</time>
      </trkpt>
      <trkpt lat="42.94606" lon="0.24019">
        <ele>1234.95</ele>
        <time>2013-06-27T09:56:32Z</time>
      </trkpt>
      <trkpt lat="42.94602" lon="0.24029">
        <ele>1234.47</ele>
        <time>2013-06-27T09:56:40Z</time>
      </trkpt>
      <trkpt lat="42.94597" lon="0.24041">
        <ele>1234.47</ele>
        <time>2013-06-27T09:56:48Z</time>
      </trkpt>
      <trkpt lat="42.94592" lon="0.24052">
        <ele>1233.99</ele>
        <time>2013-06-27T09:56:56Z</time>
      </trkpt>
      <trkpt lat="42.94588" lon="0.24063">
        <ele>1233.51</ele>
        <time>2013-06-27T09:57:04Z</time>
      </trkpt>
      <trkpt lat="42.94584" lon="0.24075">
        <ele>1233.51</ele>
        <time>2013-06-27T09:57:12Z</time>
      </trkpt>
      <trkpt lat="42.94582" lon="0.24082">
        <ele>1232.55</ele>
        <time>2013-06-27T09:57:49Z</time>
      </trkpt>
      <trkpt lat="42.94577" lon="0.24095">
        <ele>1232.07</ele>
        <time>2013-06-27T09:57:58Z</time>
      </trkpt>
      <trkpt lat="42.94573" lon="0.24106">
        <ele>1232.07</ele>
        <time>2013-06-27T09:58:05Z</time>
      </trkpt>
      <trkpt lat="42.94571" lon="0.2412">
        <ele>1231.59</ele>
        <time>2013-06-27T09:58:12Z</time>
      </trkpt>
      <trkpt lat="42.94567" lon="0.24133">
        <ele>1230.62</ele>
        <time>2013-06-27T09:58:20Z</time>
      </trkpt>
      <trkpt lat="42.94563" lon="0.24145">
        <ele>1230.14</ele>
        <time>2013-06-27T09:58:28Z</time>
      </trkpt>
      <trkpt lat="42.94556" lon="0.24156">
        <ele>1229.18</ele>
        <time>2013-06-27T09:58:36Z</time>
      </trkpt>
      <trkpt lat="42.94548" lon="0.24161">
        <ele>1228.7</ele>
        <time>2013-06-27T09:59:27Z</time>
      </trkpt>
      <trkpt lat="42.94538" lon="0.24163">
        <ele>1227.74</ele>
        <time>2013-06-27T09:59:34Z</time>
      </trkpt>
      <trkpt lat="42.94529" lon="0.24164">
        <ele>1226.78</ele>
        <time>2013-06-27T09:59:40Z</time>
      </trkpt>
      <trkpt lat="42.94519" lon="0.24167">
        <ele>1226.78</ele>
        <time>2013-06-27T09:59:48Z</time>
      </trkpt>
      <trkpt lat="42.94514" lon="0.2418">
        <ele>1226.3</ele>
        <time>2013-06-27T09:59:56Z</time>
      </trkpt>
      <trkpt lat="42.94514" lon="0.24194">
        <ele>1226.3</ele>
        <time>2013-06-27T10:00:04Z</time>
      </trkpt>
      <trkpt lat="42.94517" lon="0.24206">
        <ele>1226.3</ele>
        <time>2013-06-27T10:00:11Z</time>
      </trkpt>
      <trkpt lat="42.94521" lon="0.24218">
        <ele>1226.3</ele>
        <time>2013-06-27T10:00:18Z</time>
      </trkpt>
      <trkpt lat="42.94522" lon="0.2423">
        <ele>1226.3</ele>
        <time>2013-06-27T10:00:26Z</time>
      </trkpt>
      <trkpt lat="42.94527" lon="0.24242">
        <ele>1225.34</ele>
        <time>2013-06-27T10:00:33Z</time>
      </trkpt>
      <trkpt lat="42.94532" lon="0.24253">
        <ele>1225.82</ele>
        <time>2013-06-27T10:00:40Z</time>
      </trkpt>
      <trkpt lat="42.94534" lon="0.24266">
        <ele>1225.34</ele>
        <time>2013-06-27T10:00:47Z</time>
      </trkpt>
      <trkpt lat="42.94538" lon="0.24277">
        <ele>1224.86</ele>
        <time>2013-06-27T10:00:54Z</time>
      </trkpt>
      <trkpt lat="42.94543" lon="0.24289">
        <ele>1223.9</ele>
        <time>2013-06-27T10:01:01Z</time>
      </trkpt>
      <trkpt lat="42.9455" lon="0.24299">
        <ele>1223.9</ele>
        <time>2013-06-27T10:01:08Z</time>
      </trkpt>
      <trkpt lat="42.94558" lon="0.24306">
        <ele>1223.42</ele>
        <time>2013-06-27T10:01:15Z</time>
      </trkpt>
      <trkpt lat="42.94566" lon="0.24314">
        <ele>1222.93</ele>
        <time>2013-06-27T10:01:22Z</time>
      </trkpt>
      <trkpt lat="42.94572" lon="0.2432">
        <ele>1222.93</ele>
        <time>2013-06-27T10:01:42Z</time>
      </trkpt>
      <trkpt lat="42.94581" lon="0.24328">
        <ele>1221.49</ele>
        <time>2013-06-27T10:01:50Z</time>
      </trkpt>
      <trkpt lat="42.94588" lon="0.24337">
        <ele>1221.97</ele>
        <time>2013-06-27T10:01:58Z</time>
      </trkpt>
      <trkpt lat="42.94597" lon="0.24345">
        <ele>1221.49</ele>
        <time>2013-06-27T10:02:06Z</time>
      </trkpt>
      <trkpt lat="42.94604" lon="0.24353">
        <ele>1221.49</ele>
        <time>2013-06-27T10:02:14Z</time>
      </trkpt>
      <trkpt lat="42.94613" lon="0.2436">
        <ele>1220.53</ele>
        <time>2013-06-27T10:02:22Z</time>
      </trkpt>
      <trkpt lat="42.94622" lon="0.24368">
        <ele>1221.01</ele>
        <time>2013-06-27T10:02:30Z</time>
      </trkpt>
      <trkpt lat="42.9463" lon="0.24376">
        <ele>1220.53</ele>
        <time>2013-06-27T10:02:38Z</time>
      </trkpt>
      <trkpt lat="42.94638" lon="0.24384">
        <ele>1220.53</ele>
        <time>2013-06-27T10:02:47Z</time>
      </trkpt>
      <trkpt lat="42.94646" lon="0.24393">
        <ele>1220.53</ele>
        <time>2013-06-27T10:02:55Z</time>
      </trkpt>
      <trkpt lat="42.94653" lon="0.24406">
        <ele>1220.53</ele>
        <time>2013-06-27T10:03:04Z</time>
      </trkpt>
      <trkpt lat="42.94659" lon="0.24417">
        <ele>1220.05</ele>
        <time>2013-06-27T10:03:12Z</time>
      </trkpt>
      <trkpt lat="42.94664" lon="0.24427">
        <ele>1220.05</ele>
        <time>2013-06-27T10:03:20Z</time>
      </trkpt>
      <trkpt lat="42.9467" lon="0.24438">
        <ele>1219.57</ele>
        <time>2013-06-27T10:03:28Z</time>
      </trkpt>
      <trkpt lat="42.94675" lon="0.24448">
        <ele>1219.57</ele>
        <time>2013-06-27T10:03:36Z</time>
      </trkpt>
      <trkpt lat="42.9468" lon="0.24459">
        <ele>1219.57</ele>
        <time>2013-06-27T10:03:44Z</time>
      </trkpt>
      <trkpt lat="42.94684" lon="0.24471">
        <ele>1220.05</ele>
        <time>2013-06-27T10:03:52Z</time>
      </trkpt>
      <trkpt lat="42.94689" lon="0.24482">
        <ele>1220.05</ele>
        <time>2013-06-27T10:04:00Z</time>
      </trkpt>
      <trkpt lat="42.94694" lon="0.24493">
        <ele>1220.53</ele>
        <time>2013-06-27T10:04:08Z</time>
      </trkpt>
      <trkpt lat="42.94699" lon="0.24506">
        <ele>1220.53</ele>
        <time>2013-06-27T10:04:16Z</time>
      </trkpt>
      <trkpt lat="42.94704" lon="0.24517">
        <ele>1220.53</ele>
        <time>2013-06-27T10:04:24Z</time>
      </trkpt>
      <trkpt lat="42.94708" lon="0.24528">
        <ele>1221.01</ele>
        <time>2013-06-27T10:04:31Z</time>
      </trkpt>
      <trkpt lat="42.94713" lon="0.24539">
        <ele>1220.53</ele>
        <time>2013-06-27T10:04:38Z</time>
      </trkpt>
      <trkpt lat="42.94718" lon="0.24551">
        <ele>1220.53</ele>
        <time>2013-06-27T10:04:46Z</time>
      </trkpt>
      <trkpt lat="42.94722" lon="0.24564">
        <ele>1220.53</ele>
        <time>2013-06-27T10:04:54Z</time>
      </trkpt>
      <trkpt lat="42.94726" lon="0.24577">
        <ele>1220.05</ele>
        <time>2013-06-27T10:05:02Z</time>
      </trkpt>
      <trkpt lat="42.94728" lon="0.24591">
        <ele>1220.05</ele>
        <time>2013-06-27T10:05:10Z</time>
      </trkpt>
      <trkpt lat="42.94731" lon="0.24603">
        <ele>1219.57</ele>
        <time>2013-06-27T10:05:17Z</time>
      </trkpt>
      <trkpt lat="42.94733" lon="0.24615">
        <ele>1219.57</ele>
        <time>2013-06-27T10:05:25Z</time>
      </trkpt>
      <trkpt lat="42.94736" lon="0.24628">
        <ele>1219.57</ele>
        <time>2013-06-27T10:05:34Z</time>
      </trkpt>
      <trkpt lat="42.94736" lon="0.24639">
        <ele>1219.57</ele>
        <time>2013-06-27T10:06:30Z</time>
      </trkpt>
      <trkpt lat="42.94737" lon="0.24654">
        <ele>1218.61</ele>
        <time>2013-06-27T10:06:40Z</time>
      </trkpt>
      <trkpt lat="42.94738" lon="0.24667">
        <ele>1218.61</ele>
        <time>2013-06-27T10:06:49Z</time>
      </trkpt>
      <trkpt lat="42.94739" lon="0.24677">
        <ele>1218.61</ele>
        <time>2013-06-27T10:07:13Z</time>
      </trkpt>
      <trkpt lat="42.9474" lon="0.24692">
        <ele>1219.09</ele>
        <time>2013-06-27T10:07:21Z</time>
      </trkpt>
      <trkpt lat="42.94744" lon="0.24706">
        <ele>1218.13</ele>
        <time>2013-06-27T10:07:29Z</time>
      </trkpt>
      <trkpt lat="42.94746" lon="0.24718">
        <ele>1217.65</ele>
        <time>2013-06-27T10:07:37Z</time>
      </trkpt>
      <trkpt lat="42.9475" lon="0.2473">
        <ele>1218.13</ele>
        <time>2013-06-27T10:07:45Z</time>
      </trkpt>
      <trkpt lat="42.94753" lon="0.24743">
        <ele>1217.65</ele>
        <time>2013-06-27T10:07:53Z</time>
      </trkpt>
      <trkpt lat="42.94756" lon="0.24755">
        <ele>1218.13</ele>
        <time>2013-06-27T10:08:01Z</time>
      </trkpt>
      <trkpt lat="42.94758" lon="0.24767">
        <ele>1217.65</ele>
        <time>2013-06-27T10:08:09Z</time>
      </trkpt>
      <trkpt lat="42.94762" lon="0.24779">
        <ele>1217.65</ele>
        <time>2013-06-27T10:08:17Z</time>
      </trkpt>
      <trkpt lat="42.94761" lon="0.24788">
        <ele>1217.65</ele>
        <time>2013-06-27T10:08:39Z</time>
      </trkpt>
      <trkpt lat="42.94764" lon="0.24795">
        <ele>1218.13</ele>
        <time>2013-06-27T10:08:58Z</time>
      </trkpt>
      <trkpt lat="42.94769" lon="0.24807">
        <ele>1217.65</ele>
        <time>2013-06-27T10:09:09Z</time>
      </trkpt>
      <trkpt lat="42.94774" lon="0.2482">
        <ele>1217.65</ele>
        <time>2013-06-27T10:09:18Z</time>
      </trkpt>
      <trkpt lat="42.94778" lon="0.2483">
        <ele>1218.13</ele>
        <time>2013-06-27T10:09:26Z</time>
      </trkpt>
      <trkpt lat="42.94782" lon="0.24842">
        <ele>1218.61</ele>
        <time>2013-06-27T10:09:34Z</time>
      </trkpt>
      <trkpt lat="42.94786" lon="0.24853">
        <ele>1219.09</ele>
        <time>2013-06-27T10:09:41Z</time>
      </trkpt>
      <trkpt lat="42.94791" lon="0.24865">
        <ele>1219.57</ele>
        <time>2013-06-27T10:09:49Z</time>
      </trkpt>
      <trkpt lat="42.94796" lon="0.24877">
        <ele>1219.57</ele>
        <time>2013-06-27T10:09:57Z</time>
      </trkpt>
      <trkpt lat="42.94801" lon="0.24888">
        <ele>1219.09</ele>
        <time>2013-06-27T10:10:05Z</time>
      </trkpt>
      <trkpt lat="42.94807" lon="0.249">
        <ele>1220.05</ele>
        <time>2013-06-27T10:10:13Z</time>
      </trkpt>
      <trkpt lat="42.94811" lon="0.24912">
        <ele>1220.05</ele>
        <time>2013-06-27T10:10:21Z</time>
      </trkpt>
      <trkpt lat="42.94816" lon="0.24923">
        <ele>1220.05</ele>
        <time>2013-06-27T10:10:29Z</time>
      </trkpt>
      <trkpt lat="42.94821" lon="0.24935">
        <ele>1220.05</ele>
        <time>2013-06-27T10:10:37Z</time>
      </trkpt>
      <trkpt lat="42.94825" lon="0.24947">
        <ele>1220.53</ele>
        <time>2013-06-27T10:10:45Z</time>
      </trkpt>
      <trkpt lat="42.94829" lon="0.24958">
        <ele>1220.05</ele>
        <time>2013-06-27T10:10:53Z</time>
      </trkpt>
      <trkpt lat="42.94832" lon="0.24971">
        <ele>1219.57</ele>
        <time>2013-06-27T10:11:01Z</time>
      </trkpt>
      <trkpt lat="42.94834" lon="0.24983">
        <ele>1220.05</ele>
        <time>2013-06-27T10:11:09Z</time>
      </trkpt>
      <trkpt lat="42.94835" lon="0.24996">
        <ele>1219.57</ele>
        <time>2013-06-27T10:11:17Z</time>
      </trkpt>
      <trkpt lat="42.94836" lon="0.25009">
        <ele>1220.05</ele>
        <time>2013-06-27T10:11:25Z</time>
      </trkpt>
      <trkpt lat="42.94835" lon="0.25022">
        <ele>1219.57</ele>
        <time>2013-06-27T10:11:32Z</time>
      </trkpt>
      <trkpt lat="42.94835" lon="0.25034">
        <ele>1219.57</ele>
        <time>2013-06-27T10:11:39Z</time>
      </trkpt>
      <trkpt lat="42.94834" lon="0.25047">
        <ele>1219.57</ele>
        <time>2013-06-27T10:11:47Z</time>
      </trkpt>
      <trkpt lat="42.94833" lon="0.2506">
        <ele>1219.09</ele>
        <time>2013-06-27T10:11:55Z</time>
      </trkpt>
      <trkpt lat="42.94831" lon="0.25073">
        <ele>1219.09</ele>
        <time>2013-06-27T10:12:03Z</time>
      </trkpt>
      <trkpt lat="42.94829" lon="0.25086">
        <ele>1219.09</ele>
        <time>2013-06-27T10:12:13Z</time>
      </trkpt>
      <trkpt lat="42.94827" lon="0.2509">
        <ele>1218.61</ele>
        <time>2013-06-27T10:12:38Z</time>
      </trkpt>
      <trkpt lat="42.94825" lon="0.25104">
        <ele>1218.61</ele>
        <time>2013-06-27T10:12:46Z</time>
      </trkpt>
      <trkpt lat="42.94822" lon="0.25116">
        <ele>1218.61</ele>
        <time>2013-06-27T10:12:53Z</time>
      </trkpt>
      <trkpt lat="42.94819" lon="0.25127">
        <ele>1218.61</ele>
        <time>2013-06-27T10:13:00Z</time>
      </trkpt>
      <trkpt lat="42.94814" lon="0.25139">
        <ele>1218.61</ele>
        <time>2013-06-27T10:13:08Z</time>
      </trkpt>
      <trkpt lat="42.94809" lon="0.2515">
        <ele>1218.13</ele>
        <time>2013-06-27T10:13:17Z</time>
      </trkpt>
      <trkpt lat="42.94804" lon="0.25161">
        <ele>1217.65</ele>
        <time>2013-06-27T10:13:25Z</time>
      </trkpt>
      <trkpt lat="42.94799" lon="0.25171">
        <ele>1217.65</ele>
        <time>2013-06-27T10:13:33Z</time>
      </trkpt>
      <trkpt lat="42.94793" lon="0.25181">
        <ele>1217.17</ele>
        <time>2013-06-27T10:13:41Z</time>
      </trkpt>
      <trkpt lat="42.94787" lon="0.25192">
        <ele>1217.17</ele>
        <time>2013-06-27T10:13:49Z</time>
      </trkpt>
      <trkpt lat="42.9478" lon="0.25201">
        <ele>1216.69</ele>
        <time>2013-06-27T10:13:57Z</time>
      </trkpt>
      <trkpt lat="42.94773" lon="0.25209">
        <ele>1216.69</ele>
        <time>2013-06-27T10:14:06Z</time>
      </trkpt>
      <trkpt lat="42.94764" lon="0.25216">
        <ele>1216.21</ele>
        <time>2013-06-27T10:14:15Z</time>
      </trkpt>
      <trkpt lat="42.94759" lon="0.25219">
        <ele>1215.72</ele>
        <time>2013-06-27T10:14:28Z</time>
      </trkpt>
      <trkpt lat="42.94751" lon="0.25219">
        <ele>1215.24</ele>
        <time>2013-06-27T10:15:09Z</time>
      </trkpt>
      <trkpt lat="42.94743" lon="0.25219">
        <ele>1214.28</ele>
        <time>2013-06-27T10:15:16Z</time>
      </trkpt>
      <trkpt lat="42.94733" lon="0.25218">
        <ele>1213.8</ele>
        <time>2013-06-27T10:15:22Z</time>
      </trkpt>
      <trkpt lat="42.94722" lon="0.25214">
        <ele>1212.84</ele>
        <time>2013-06-27T10:15:30Z</time>
      </trkpt>
      <trkpt lat="42.94712" lon="0.25207">
        <ele>1211.4</ele>
        <time>2013-06-27T10:15:38Z</time>
      </trkpt>
      <trkpt lat="42.94703" lon="0.25203">
        <ele>1211.4</ele>
        <time>2013-06-27T10:15:45Z</time>
      </trkpt>
      <trkpt lat="42.94694" lon="0.25199">
        <ele>1210.92</ele>
        <time>2013-06-27T10:15:54Z</time>
      </trkpt>
      <trkpt lat="42.94685" lon="0.25197">
        <ele>1210.92</ele>
        <time>2013-06-27T10:16:01Z</time>
      </trkpt>
      <trkpt lat="42.94675" lon="0.25198">
        <ele>1209.96</ele>
        <time>2013-06-27T10:16:08Z</time>
      </trkpt>
      <trkpt lat="42.94665" lon="0.252">
        <ele>1209.48</ele>
        <time>2013-06-27T10:16:15Z</time>
      </trkpt>
      <trkpt lat="42.94656" lon="0.25203">
        <ele>1209.48</ele>
        <time>2013-06-27T10:16:22Z</time>
      </trkpt>
      <trkpt lat="42.94647" lon="0.25207">
        <ele>1208.03</ele>
        <time>2013-06-27T10:16:29Z</time>
      </trkpt>
      <trkpt lat="42.94638" lon="0.25213">
        <ele>1208.03</ele>
        <time>2013-06-27T10:16:36Z</time>
      </trkpt>
      <trkpt lat="42.94629" lon="0.25218">
        <ele>1207.07</ele>
        <time>2013-06-27T10:16:45Z</time>
      </trkpt>
      <trkpt lat="42.9462" lon="0.25225">
        <ele>1206.59</ele>
        <time>2013-06-27T10:16:53Z</time>
      </trkpt>
      <trkpt lat="42.94611" lon="0.25234">
        <ele>1205.63</ele>
        <time>2013-06-27T10:17:01Z</time>
      </trkpt>
      <trkpt lat="42.94603" lon="0.25242">
        <ele>1204.67</ele>
        <time>2013-06-27T10:17:09Z</time>
      </trkpt>
      <trkpt lat="42.94596" lon="0.2525">
        <ele>1204.19</ele>
        <time>2013-06-27T10:17:18Z</time>
      </trkpt>
      <trkpt lat="42.94588" lon="0.25256">
        <ele>1203.71</ele>
        <time>2013-06-27T10:17:28Z</time>
      </trkpt>
      <trkpt lat="42.94579" lon="0.25263">
        <ele>1203.23</ele>
        <time>2013-06-27T10:17:36Z</time>
      </trkpt>
      <trkpt lat="42.94576" lon="0.25266">
        <ele>1202.27</ele>
        <time>2013-06-27T10:18:20Z</time>
      </trkpt>
      <trkpt lat="42.94568" lon="0.25273">
        <ele>1201.79</ele>
        <time>2013-06-27T10:18:28Z</time>
      </trkpt>
      <trkpt lat="42.9456" lon="0.25281">
        <ele>1200.82</ele>
        <time>2013-06-27T10:18:36Z</time>
      </trkpt>
      <trkpt lat="42.94551" lon="0.25289">
        <ele>1200.82</ele>
        <time>2013-06-27T10:18:44Z</time>
      </trkpt>
      <trkpt lat="42.94544" lon="0.25295">
        <ele>1199.86</ele>
        <time>2013-06-27T10:18:52Z</time>
      </trkpt>
      <trkpt lat="42.94535" lon="0.25301">
        <ele>1198.42</ele>
        <time>2013-06-27T10:19:00Z</time>
      </trkpt>
      <trkpt lat="42.94525" lon="0.25305">
        <ele>1197.46</ele>
        <time>2013-06-27T10:19:08Z</time>
      </trkpt>
      <trkpt lat="42.94515" lon="0.25309">
        <ele>1196.5</ele>
        <time>2013-06-27T10:19:16Z</time>
      </trkpt>
      <trkpt lat="42.94505" lon="0.2531">
        <ele>1196.02</ele>
        <time>2013-06-27T10:19:24Z</time>
      </trkpt>
      <trkpt lat="42.94494" lon="0.25311">
        <ele>1196.02</ele>
        <time>2013-06-27T10:19:31Z</time>
      </trkpt>
      <trkpt lat="42.94483" lon="0.25307">
        <ele>1195.06</ele>
        <time>2013-06-27T10:19:38Z</time>
      </trkpt>
      <trkpt lat="42.94474" lon="0.25304">
        <ele>1194.09</ele>
        <time>2013-06-27T10:19:45Z</time>
      </trkpt>
      <trkpt lat="42.94464" lon="0.25296">
        <ele>1193.13</ele>
        <time>2013-06-27T10:19:53Z</time>
      </trkpt>
      <trkpt lat="42.94454" lon="0.25292">
        <ele>1192.65</ele>
        <time>2013-06-27T10:20:00Z</time>
      </trkpt>
      <trkpt lat="42.94443" lon="0.25291">
        <ele>1191.69</ele>
        <time>2013-06-27T10:20:07Z</time>
      </trkpt>
      <trkpt lat="42.94437" lon="0.25291">
        <ele>1190.73</ele>
        <time>2013-06-27T10:21:00Z</time>
      </trkpt>
      <trkpt lat="42.94432" lon="0.25303">
        <ele>1191.21</ele>
        <time>2013-06-27T10:21:14Z</time>
      </trkpt>
      <trkpt lat="42.94432" lon="0.25316">
        <ele>1190.73</ele>
        <time>2013-06-27T10:21:22Z</time>
      </trkpt>
      <trkpt lat="42.94439" lon="0.25328">
        <ele>1191.21</ele>
        <time>2013-06-27T10:21:30Z</time>
      </trkpt>
      <trkpt lat="42.94443" lon="0.25341">
        <ele>1191.21</ele>
        <time>2013-06-27T10:21:38Z</time>
      </trkpt>
      <trkpt lat="42.9445" lon="0.25352">
        <ele>1191.21</ele>
        <time>2013-06-27T10:21:45Z</time>
      </trkpt>
      <trkpt lat="42.94455" lon="0.25364">
        <ele>1191.21</ele>
        <time>2013-06-27T10:21:52Z</time>
      </trkpt>
      <trkpt lat="42.94459" lon="0.25376">
        <ele>1191.69</ele>
        <time>2013-06-27T10:21:59Z</time>
      </trkpt>
      <trkpt lat="42.94464" lon="0.25389">
        <ele>1191.21</ele>
        <time>2013-06-27T10:22:06Z</time>
      </trkpt>
      <trkpt lat="42.94468" lon="0.254">
        <ele>1190.73</ele>
        <time>2013-06-27T10:22:13Z</time>
      </trkpt>
      <trkpt lat="42.94472" lon="0.25413">
        <ele>1191.21</ele>
        <time>2013-06-27T10:22:21Z</time>
      </trkpt>
      <trkpt lat="42.94476" lon="0.25426">
        <ele>1191.21</ele>
        <time>2013-06-27T10:22:28Z</time>
      </trkpt>
      <trkpt lat="42.94481" lon="0.25438">
        <ele>1191.21</ele>
        <time>2013-06-27T10:22:35Z</time>
      </trkpt>
      <trkpt lat="42.94484" lon="0.25451">
        <ele>1192.17</ele>
        <time>2013-06-27T10:22:42Z</time>
      </trkpt>
      <trkpt lat="42.94487" lon="0.25463">
        <ele>1192.65</ele>
        <time>2013-06-27T10:22:49Z</time>
      </trkpt>
      <trkpt lat="42.94494" lon="0.25473">
        <ele>1192.65</ele>
        <time>2013-06-27T10:22:57Z</time>
      </trkpt>
      <trkpt lat="42.94503" lon="0.2548">
        <ele>1192.65</ele>
        <time>2013-06-27T10:23:05Z</time>
      </trkpt>
      <trkpt lat="42.94514" lon="0.25485">
        <ele>1192.17</ele>
        <time>2013-06-27T10:23:13Z</time>
      </trkpt>
      <trkpt lat="42.94522" lon="0.25489">
        <ele>1191.69</ele>
        <time>2013-06-27T10:23:20Z</time>
      </trkpt>
      <trkpt lat="42.94531" lon="0.25493">
        <ele>1190.73</ele>
        <time>2013-06-27T10:23:27Z</time>
      </trkpt>
      <trkpt lat="42.94541" lon="0.25499">
        <ele>1190.73</ele>
        <time>2013-06-27T10:23:34Z</time>
      </trkpt>
      <trkpt lat="42.94551" lon="0.25503">
        <ele>1189.77</ele>
        <time>2013-06-27T10:23:40Z</time>
      </trkpt>
      <trkpt lat="42.9456" lon="0.2551">
        <ele>1190.73</ele>
        <time>2013-06-27T10:23:46Z</time>
      </trkpt>
      <trkpt lat="42.94568" lon="0.25516">
        <ele>1189.29</ele>
        <time>2013-06-27T10:23:52Z</time>
      </trkpt>
      <trkpt lat="42.94577" lon="0.25522">
        <ele>1187.85</ele>
        <time>2013-06-27T10:23:59Z</time>
      </trkpt>
      <trkpt lat="42.94586" lon="0.25531">
        <ele>1186.4</ele>
        <time>2013-06-27T10:24:06Z</time>
      </trkpt>
      <trkpt lat="42.94595" lon="0.25538">
        <ele>1185.92</ele>
        <time>2013-06-27T10:24:13Z</time>
      </trkpt>
      <trkpt lat="42.94604" lon="0.25546">
        <ele>1184.48</ele>
        <time>2013-06-27T10:24:20Z</time>
      </trkpt>
      <trkpt lat="42.94611" lon="0.25553">
        <ele>1184.48</ele>
        <time>2013-06-27T10:24:26Z</time>
      </trkpt>
      <trkpt lat="42.9462" lon="0.25559">
        <ele>1183.52</ele>
        <time>2013-06-27T10:24:33Z</time>
      </trkpt>
      <trkpt lat="42.94629" lon="0.25567">
        <ele>1182.56</ele>
        <time>2013-06-27T10:24:40Z</time>
      </trkpt>
      <trkpt lat="42.94634" lon="0.25577">
        <ele>1181.6</ele>
        <time>2013-06-27T10:24:46Z</time>
      </trkpt>
      <trkpt lat="42.9463" lon="0.25588">
        <ele>1180.16</ele>
        <time>2013-06-27T10:24:53Z</time>
      </trkpt>
      <trkpt lat="42.9462" lon="0.2559">
        <ele>1179.19</ele>
        <time>2013-06-27T10:25:00Z</time>
      </trkpt>
      <trkpt lat="42.9461" lon="0.25592">
        <ele>1178.23</ele>
        <time>2013-06-27T10:25:07Z</time>
      </trkpt>
      <trkpt lat="42.946" lon="0.25595">
        <ele>1177.75</ele>
        <time>2013-06-27T10:25:15Z</time>
      </trkpt>
      <trkpt lat="42.94593" lon="0.25603">
        <ele>1177.75</ele>
        <time>2013-06-27T10:25:25Z</time>
      </trkpt>
      <trkpt lat="42.94588" lon="0.25603">
        <ele>1176.31</ele>
        <time>2013-06-27T10:26:15Z</time>
      </trkpt>
      <trkpt lat="42.94586" lon="0.25608">
        <ele>1175.83</ele>
        <time>2013-06-27T10:26:26Z</time>
      </trkpt>
      <trkpt lat="42.94587" lon="0.25609">
        <ele>1174.87</ele>
        <time>2013-06-27T10:44:52Z</time>
      </trkpt>
      <trkpt lat="42.94587" lon="0.25608">
        <ele>1174.87</ele>
        <time>2013-06-27T11:17:32Z</time>
      </trkpt>
      <trkpt lat="42.94588" lon="0.2561">
        <ele>1173.91</ele>
        <time>2013-06-27T11:46:51Z</time>
      </trkpt>
      <trkpt lat="42.94586" lon="0.25604">
        <ele>1175.35</ele>
        <time>2013-06-27T12:01:13Z</time>
      </trkpt>
      <trkpt lat="42.94579" lon="0.25595">
        <ele>1175.83</ele>
        <time>2013-06-27T12:01:26Z</time>
      </trkpt>
      <trkpt lat="42.94572" lon="0.25594">
        <ele>1177.27</ele>
        <time>2013-06-27T12:01:52Z</time>
      </trkpt>
      <trkpt lat="42.94567" lon="0.25602">
        <ele>1178.23</ele>
        <time>2013-06-27T12:02:03Z</time>
      </trkpt>
      <trkpt lat="42.9457" lon="0.25612">
        <ele>1178.23</ele>
        <time>2013-06-27T12:02:20Z</time>
      </trkpt>
      <trkpt lat="42.94574" lon="0.25625">
        <ele>1179.19</ele>
        <time>2013-06-27T12:02:32Z</time>
      </trkpt>
      <trkpt lat="42.94579" lon="0.25637">
        <ele>1179.67</ele>
        <time>2013-06-27T12:02:44Z</time>
      </trkpt>
      <trkpt lat="42.9458" lon="0.25649">
        <ele>1180.16</ele>
        <time>2013-06-27T12:02:54Z</time>
      </trkpt>
      <trkpt lat="42.94582" lon="0.25661">
        <ele>1181.6</ele>
        <time>2013-06-27T12:03:04Z</time>
      </trkpt>
      <trkpt lat="42.94582" lon="0.25673">
        <ele>1182.08</ele>
        <time>2013-06-27T12:03:14Z</time>
      </trkpt>
      <trkpt lat="42.94583" lon="0.25686">
        <ele>1183.04</ele>
        <time>2013-06-27T12:03:24Z</time>
      </trkpt>
      <trkpt lat="42.94582" lon="0.257">
        <ele>1184</ele>
        <time>2013-06-27T12:03:34Z</time>
      </trkpt>
      <trkpt lat="42.94582" lon="0.25713">
        <ele>1184.96</ele>
        <time>2013-06-27T12:03:43Z</time>
      </trkpt>
      <trkpt lat="42.94584" lon="0.25726">
        <ele>1185.92</ele>
        <time>2013-06-27T12:03:52Z</time>
      </trkpt>
      <trkpt lat="42.94585" lon="0.25737">
        <ele>1185.92</ele>
        <time>2013-06-27T12:04:02Z</time>
      </trkpt>
      <trkpt lat="42.94589" lon="0.2575">
        <ele>1186.4</ele>
        <time>2013-06-27T12:04:11Z</time>
      </trkpt>
      <trkpt lat="42.94592" lon="0.25763">
        <ele>1187.37</ele>
        <time>2013-06-27T12:04:22Z</time>
      </trkpt>
      <trkpt lat="42.94597" lon="0.25776">
        <ele>1187.85</ele>
        <time>2013-06-27T12:04:34Z</time>
      </trkpt>
      <trkpt lat="42.94601" lon="0.25788">
        <ele>1189.29</ele>
        <time>2013-06-27T12:04:47Z</time>
      </trkpt>
      <trkpt lat="42.94603" lon="0.25801">
        <ele>1190.25</ele>
        <time>2013-06-27T12:04:58Z</time>
      </trkpt>
      <trkpt lat="42.94607" lon="0.25815">
        <ele>1192.65</ele>
        <time>2013-06-27T12:05:10Z</time>
      </trkpt>
      <trkpt lat="42.94611" lon="0.25828">
        <ele>1193.13</ele>
        <time>2013-06-27T12:05:21Z</time>
      </trkpt>
      <trkpt lat="42.94611" lon="0.25841">
        <ele>1194.58</ele>
        <time>2013-06-27T12:05:32Z</time>
      </trkpt>
      <trkpt lat="42.94604" lon="0.25851">
        <ele>1195.54</ele>
        <time>2013-06-27T12:05:43Z</time>
      </trkpt>
      <trkpt lat="42.94594" lon="0.25854">
        <ele>1195.06</ele>
        <time>2013-06-27T12:05:53Z</time>
      </trkpt>
      <trkpt lat="42.94593" lon="0.25861">
        <ele>1194.58</ele>
        <time>2013-06-27T12:06:16Z</time>
      </trkpt>
      <trkpt lat="42.946" lon="0.25867">
        <ele>1194.09</ele>
        <time>2013-06-27T12:06:25Z</time>
      </trkpt>
      <trkpt lat="42.94607" lon="0.25873">
        <ele>1193.13</ele>
        <time>2013-06-27T12:06:38Z</time>
      </trkpt>
      <trkpt lat="42.94606" lon="0.25872">
        <ele>1193.61</ele>
        <time>2013-06-27T12:07:47Z</time>
      </trkpt>
      <trkpt lat="42.94598" lon="0.25868">
        <ele>1194.09</ele>
        <time>2013-06-27T12:07:58Z</time>
      </trkpt>
      <trkpt lat="42.9459" lon="0.25865">
        <ele>1194.58</ele>
        <time>2013-06-27T12:08:06Z</time>
      </trkpt>
      <trkpt lat="42.94582" lon="0.25873">
        <ele>1195.54</ele>
        <time>2013-06-27T12:08:16Z</time>
      </trkpt>
      <trkpt lat="42.9458" lon="0.25884">
        <ele>1195.54</ele>
        <time>2013-06-27T12:08:28Z</time>
      </trkpt>
      <trkpt lat="42.94577" lon="0.25894">
        <ele>1196.02</ele>
        <time>2013-06-27T12:08:38Z</time>
      </trkpt>
      <trkpt lat="42.94576" lon="0.25907">
        <ele>1196.5</ele>
        <time>2013-06-27T12:08:48Z</time>
      </trkpt>
      <trkpt lat="42.9457" lon="0.25917">
        <ele>1196.98</ele>
        <time>2013-06-27T12:08:58Z</time>
      </trkpt>
      <trkpt lat="42.94573" lon="0.25929">
        <ele>1197.46</ele>
        <time>2013-06-27T12:09:07Z</time>
      </trkpt>
      <trkpt lat="42.94572" lon="0.2594">
        <ele>1198.42</ele>
        <time>2013-06-27T12:09:17Z</time>
      </trkpt>
      <trkpt lat="42.94573" lon="0.25953">
        <ele>1198.9</ele>
        <time>2013-06-27T12:09:28Z</time>
      </trkpt>
      <trkpt lat="42.94576" lon="0.25967">
        <ele>1200.34</ele>
        <time>2013-06-27T12:09:38Z</time>
      </trkpt>
      <trkpt lat="42.9458" lon="0.25979">
        <ele>1201.3</ele>
        <time>2013-06-27T12:09:48Z</time>
      </trkpt>
      <trkpt lat="42.9458" lon="0.25992">
        <ele>1202.75</ele>
        <time>2013-06-27T12:09:58Z</time>
      </trkpt>
      <trkpt lat="42.94578" lon="0.26003">
        <ele>1204.19</ele>
        <time>2013-06-27T12:10:08Z</time>
      </trkpt>
      <trkpt lat="42.94576" lon="0.26013">
        <ele>1205.63</ele>
        <time>2013-06-27T12:10:18Z</time>
      </trkpt>
      <trkpt lat="42.94578" lon="0.2603">
        <ele>1207.07</ele>
        <time>2013-06-27T12:10:32Z</time>
      </trkpt>
      <trkpt lat="42.94572" lon="0.26045">
        <ele>1208.03</ele>
        <time>2013-06-27T12:10:44Z</time>
      </trkpt>
      <trkpt lat="42.94569" lon="0.26059">
        <ele>1209</ele>
        <time>2013-06-27T12:10:56Z</time>
      </trkpt>
      <trkpt lat="42.94564" lon="0.26068">
        <ele>1208.51</ele>
        <time>2013-06-27T12:11:11Z</time>
      </trkpt>
      <trkpt lat="42.94561" lon="0.26081">
        <ele>1209</ele>
        <time>2013-06-27T12:11:21Z</time>
      </trkpt>
      <trkpt lat="42.94555" lon="0.26089">
        <ele>1209</ele>
        <time>2013-06-27T12:11:41Z</time>
      </trkpt>
      <trkpt lat="42.94553" lon="0.26102">
        <ele>1209</ele>
        <time>2013-06-27T12:11:51Z</time>
      </trkpt>
      <trkpt lat="42.94553" lon="0.26114">
        <ele>1209.96</ele>
        <time>2013-06-27T12:12:02Z</time>
      </trkpt>
      <trkpt lat="42.94545" lon="0.26128">
        <ele>1210.92</ele>
        <time>2013-06-27T12:12:12Z</time>
      </trkpt>
      <trkpt lat="42.94537" lon="0.26133">
        <ele>1210.44</ele>
        <time>2013-06-27T12:12:23Z</time>
      </trkpt>
      <trkpt lat="42.9453" lon="0.26143">
        <ele>1211.4</ele>
        <time>2013-06-27T12:12:32Z</time>
      </trkpt>
      <trkpt lat="42.94526" lon="0.26153">
        <ele>1211.4</ele>
        <time>2013-06-27T12:12:41Z</time>
      </trkpt>
      <trkpt lat="42.94522" lon="0.26163">
        <ele>1212.36</ele>
        <time>2013-06-27T12:12:50Z</time>
      </trkpt>
      <trkpt lat="42.94515" lon="0.2617">
        <ele>1213.32</ele>
        <time>2013-06-27T12:13:01Z</time>
      </trkpt>
      <trkpt lat="42.94507" lon="0.26177">
        <ele>1214.28</ele>
        <time>2013-06-27T12:13:11Z</time>
      </trkpt>
      <trkpt lat="42.94496" lon="0.26185">
        <ele>1216.21</ele>
        <time>2013-06-27T12:13:22Z</time>
      </trkpt>
      <trkpt lat="42.94486" lon="0.26191">
        <ele>1216.69</ele>
        <time>2013-06-27T12:13:34Z</time>
      </trkpt>
      <trkpt lat="42.94477" lon="0.26201">
        <ele>1217.65</ele>
        <time>2013-06-27T12:13:44Z</time>
      </trkpt>
      <trkpt lat="42.94475" lon="0.26211">
        <ele>1219.09</ele>
        <time>2013-06-27T12:13:54Z</time>
      </trkpt>
      <trkpt lat="42.94475" lon="0.26222">
        <ele>1220.05</ele>
        <time>2013-06-27T12:14:04Z</time>
      </trkpt>
      <trkpt lat="42.94478" lon="0.26233">
        <ele>1221.01</ele>
        <time>2013-06-27T12:14:14Z</time>
      </trkpt>
      <trkpt lat="42.94481" lon="0.26245">
        <ele>1222.45</ele>
        <time>2013-06-27T12:14:25Z</time>
      </trkpt>
      <trkpt lat="42.94484" lon="0.26258">
        <ele>1223.42</ele>
        <time>2013-06-27T12:14:35Z</time>
      </trkpt>
      <trkpt lat="42.94479" lon="0.26271">
        <ele>1225.82</ele>
        <time>2013-06-27T12:14:48Z</time>
      </trkpt>
      <trkpt lat="42.94471" lon="0.26281">
        <ele>1227.26</ele>
        <time>2013-06-27T12:15:00Z</time>
      </trkpt>
      <trkpt lat="42.94464" lon="0.26291">
        <ele>1228.22</ele>
        <time>2013-06-27T12:15:15Z</time>
      </trkpt>
      <trkpt lat="42.94462" lon="0.26303">
        <ele>1228.22</ele>
        <time>2013-06-27T12:15:25Z</time>
      </trkpt>
      <trkpt lat="42.94455" lon="0.26298">
        <ele>1228.22</ele>
        <time>2013-06-27T12:15:35Z</time>
      </trkpt>
      <trkpt lat="42.94451" lon="0.26285">
        <ele>1228.7</ele>
        <time>2013-06-27T12:15:44Z</time>
      </trkpt>
      <trkpt lat="42.94444" lon="0.2628">
        <ele>1228.22</ele>
        <time>2013-06-27T12:17:38Z</time>
      </trkpt>
      <trkpt lat="42.94436" lon="0.26276">
        <ele>1228.7</ele>
        <time>2013-06-27T12:17:51Z</time>
      </trkpt>
      <trkpt lat="42.94427" lon="0.26273">
        <ele>1228.22</ele>
        <time>2013-06-27T12:18:03Z</time>
      </trkpt>
      <trkpt lat="42.9442" lon="0.26265">
        <ele>1226.78</ele>
        <time>2013-06-27T12:18:14Z</time>
      </trkpt>
      <trkpt lat="42.94414" lon="0.26254">
        <ele>1226.78</ele>
        <time>2013-06-27T12:18:23Z</time>
      </trkpt>
      <trkpt lat="42.94407" lon="0.26246">
        <ele>1226.3</ele>
        <time>2013-06-27T12:18:32Z</time>
      </trkpt>
      <trkpt lat="42.944" lon="0.26241">
        <ele>1226.78</ele>
        <time>2013-06-27T12:18:43Z</time>
      </trkpt>
      <trkpt lat="42.9439" lon="0.26243">
        <ele>1226.3</ele>
        <time>2013-06-27T12:18:54Z</time>
      </trkpt>
      <trkpt lat="42.94381" lon="0.26247">
        <ele>1226.78</ele>
        <time>2013-06-27T12:19:04Z</time>
      </trkpt>
      <trkpt lat="42.94372" lon="0.2625">
        <ele>1226.78</ele>
        <time>2013-06-27T12:19:13Z</time>
      </trkpt>
      <trkpt lat="42.94362" lon="0.26252">
        <ele>1227.26</ele>
        <time>2013-06-27T12:19:23Z</time>
      </trkpt>
      <trkpt lat="42.94353" lon="0.26251">
        <ele>1227.74</ele>
        <time>2013-06-27T12:19:32Z</time>
      </trkpt>
      <trkpt lat="42.94344" lon="0.26251">
        <ele>1228.22</ele>
        <time>2013-06-27T12:19:41Z</time>
      </trkpt>
      <trkpt lat="42.94335" lon="0.26249">
        <ele>1228.7</ele>
        <time>2013-06-27T12:19:50Z</time>
      </trkpt>
      <trkpt lat="42.94327" lon="0.26246">
        <ele>1229.18</ele>
        <time>2013-06-27T12:20:00Z</time>
      </trkpt>
      <trkpt lat="42.94318" lon="0.26245">
        <ele>1229.18</ele>
        <time>2013-06-27T12:20:09Z</time>
      </trkpt>
      <trkpt lat="42.94308" lon="0.26243">
        <ele>1229.66</ele>
        <time>2013-06-27T12:20:18Z</time>
      </trkpt>
      <trkpt lat="42.94299" lon="0.26241">
        <ele>1230.14</ele>
        <time>2013-06-27T12:20:27Z</time>
      </trkpt>
      <trkpt lat="42.9429" lon="0.26238">
        <ele>1230.62</ele>
        <time>2013-06-27T12:20:37Z</time>
      </trkpt>
      <trkpt lat="42.94281" lon="0.26233">
        <ele>1231.11</ele>
        <time>2013-06-27T12:20:47Z</time>
      </trkpt>
      <trkpt lat="42.94273" lon="0.26227">
        <ele>1232.07</ele>
        <time>2013-06-27T12:20:57Z</time>
      </trkpt>
      <trkpt lat="42.94268" lon="0.26218">
        <ele>1233.03</ele>
        <time>2013-06-27T12:21:08Z</time>
      </trkpt>
      <trkpt lat="42.94263" lon="0.26206">
        <ele>1233.99</ele>
        <time>2013-06-27T12:21:19Z</time>
      </trkpt>
      <trkpt lat="42.94259" lon="0.26193">
        <ele>1234.95</ele>
        <time>2013-06-27T12:21:30Z</time>
      </trkpt>
      <trkpt lat="42.94253" lon="0.26184">
        <ele>1234.95</ele>
        <time>2013-06-27T12:21:40Z</time>
      </trkpt>
      <trkpt lat="42.94245" lon="0.26179">
        <ele>1235.43</ele>
        <time>2013-06-27T12:21:50Z</time>
      </trkpt>
      <trkpt lat="42.94236" lon="0.26177">
        <ele>1235.91</ele>
        <time>2013-06-27T12:21:59Z</time>
      </trkpt>
      <trkpt lat="42.94226" lon="0.26176">
        <ele>1235.91</ele>
        <time>2013-06-27T12:22:08Z</time>
      </trkpt>
      <trkpt lat="42.94216" lon="0.26176">
        <ele>1235.91</ele>
        <time>2013-06-27T12:22:17Z</time>
      </trkpt>
      <trkpt lat="42.94207" lon="0.26175">
        <ele>1236.87</ele>
        <time>2013-06-27T12:22:26Z</time>
      </trkpt>
      <trkpt lat="42.94198" lon="0.26175">
        <ele>1236.87</ele>
        <time>2013-06-27T12:22:35Z</time>
      </trkpt>
      <trkpt lat="42.94189" lon="0.26174">
        <ele>1237.35</ele>
        <time>2013-06-27T12:22:45Z</time>
      </trkpt>
      <trkpt lat="42.9418" lon="0.26172">
        <ele>1237.83</ele>
        <time>2013-06-27T12:22:54Z</time>
      </trkpt>
      <trkpt lat="42.94171" lon="0.2617">
        <ele>1237.35</ele>
        <time>2013-06-27T12:23:03Z</time>
      </trkpt>
      <trkpt lat="42.94162" lon="0.2617">
        <ele>1237.35</ele>
        <time>2013-06-27T12:23:12Z</time>
      </trkpt>
      <trkpt lat="42.94153" lon="0.2617">
        <ele>1237.83</ele>
        <time>2013-06-27T12:23:20Z</time>
      </trkpt>
      <trkpt lat="42.94145" lon="0.26171">
        <ele>1238.32</ele>
        <time>2013-06-27T12:23:29Z</time>
      </trkpt>
      <trkpt lat="42.94136" lon="0.26175">
        <ele>1239.28</ele>
        <time>2013-06-27T12:23:40Z</time>
      </trkpt>
      <trkpt lat="42.94127" lon="0.2618">
        <ele>1239.76</ele>
        <time>2013-06-27T12:23:51Z</time>
      </trkpt>
      <trkpt lat="42.94118" lon="0.2618">
        <ele>1241.68</ele>
        <time>2013-06-27T12:25:13Z</time>
      </trkpt>
      <trkpt lat="42.94109" lon="0.26176">
        <ele>1242.16</ele>
        <time>2013-06-27T12:25:24Z</time>
      </trkpt>
      <trkpt lat="42.94103" lon="0.26165">
        <ele>1242.16</ele>
        <time>2013-06-27T12:25:34Z</time>
      </trkpt>
      <trkpt lat="42.94098" lon="0.26154">
        <ele>1241.2</ele>
        <time>2013-06-27T12:25:44Z</time>
      </trkpt>
      <trkpt lat="42.9409" lon="0.26147">
        <ele>1242.16</ele>
        <time>2013-06-27T12:25:54Z</time>
      </trkpt>
      <trkpt lat="42.94081" lon="0.26141">
        <ele>1243.6</ele>
        <time>2013-06-27T12:26:05Z</time>
      </trkpt>
      <trkpt lat="42.94074" lon="0.26135">
        <ele>1244.56</ele>
        <time>2013-06-27T12:26:16Z</time>
      </trkpt>
      <trkpt lat="42.94066" lon="0.26127">
        <ele>1246.01</ele>
        <time>2013-06-27T12:26:27Z</time>
      </trkpt>
      <trkpt lat="42.94059" lon="0.26119">
        <ele>1246.49</ele>
        <time>2013-06-27T12:26:38Z</time>
      </trkpt>
      <trkpt lat="42.94052" lon="0.2611">
        <ele>1246.01</ele>
        <time>2013-06-27T12:26:49Z</time>
      </trkpt>
      <trkpt lat="42.94045" lon="0.26103">
        <ele>1246.01</ele>
        <time>2013-06-27T12:26:59Z</time>
      </trkpt>
      <trkpt lat="42.94036" lon="0.26098">
        <ele>1246.01</ele>
        <time>2013-06-27T12:27:13Z</time>
      </trkpt>
      <trkpt lat="42.94033" lon="0.2609">
        <ele>1245.04</ele>
        <time>2013-06-27T12:28:21Z</time>
      </trkpt>
      <trkpt lat="42.9403" lon="0.26076">
        <ele>1243.12</ele>
        <time>2013-06-27T12:28:34Z</time>
      </trkpt>
      <trkpt lat="42.94032" lon="0.26062">
        <ele>1242.64</ele>
        <time>2013-06-27T12:28:46Z</time>
      </trkpt>
      <trkpt lat="42.94032" lon="0.2605">
        <ele>1240.72</ele>
        <time>2013-06-27T12:28:57Z</time>
      </trkpt>
      <trkpt lat="42.94032" lon="0.26038">
        <ele>1239.76</ele>
        <time>2013-06-27T12:29:08Z</time>
      </trkpt>
      <trkpt lat="42.9403" lon="0.26026">
        <ele>1239.28</ele>
        <time>2013-06-27T12:29:20Z</time>
      </trkpt>
      <trkpt lat="42.94026" lon="0.26015">
        <ele>1237.35</ele>
        <time>2013-06-27T12:29:31Z</time>
      </trkpt>
      <trkpt lat="42.94019" lon="0.26006">
        <ele>1236.39</ele>
        <time>2013-06-27T12:29:41Z</time>
      </trkpt>
      <trkpt lat="42.9401" lon="0.25999">
        <ele>1235.91</ele>
        <time>2013-06-27T12:29:51Z</time>
      </trkpt>
      <trkpt lat="42.94002" lon="0.25992">
        <ele>1235.43</ele>
        <time>2013-06-27T12:30:01Z</time>
      </trkpt>
      <trkpt lat="42.93995" lon="0.25984">
        <ele>1234.95</ele>
        <time>2013-06-27T12:30:12Z</time>
      </trkpt>
      <trkpt lat="42.93986" lon="0.25977">
        <ele>1233.51</ele>
        <time>2013-06-27T12:30:23Z</time>
      </trkpt>
      <trkpt lat="42.93978" lon="0.25972">
        <ele>1232.07</ele>
        <time>2013-06-27T12:30:35Z</time>
      </trkpt>
      <trkpt lat="42.93971" lon="0.25968">
        <ele>1232.07</ele>
        <time>2013-06-27T12:30:50Z</time>
      </trkpt>
      <trkpt lat="42.93963" lon="0.25962">
        <ele>1232.07</ele>
        <time>2013-06-27T12:31:40Z</time>
      </trkpt>
      <trkpt lat="42.93957" lon="0.25958">
        <ele>1231.11</ele>
        <time>2013-06-27T12:31:57Z</time>
      </trkpt>
      <trkpt lat="42.93953" lon="0.25956">
        <ele>1230.62</ele>
        <time>2013-06-27T12:32:45Z</time>
      </trkpt>
      <trkpt lat="42.93944" lon="0.25951">
        <ele>1228.22</ele>
        <time>2013-06-27T12:33:02Z</time>
      </trkpt>
      <trkpt lat="42.93937" lon="0.2595">
        <ele>1227.74</ele>
        <time>2013-06-27T12:33:15Z</time>
      </trkpt>
      <trkpt lat="42.93938" lon="0.2596">
        <ele>1227.74</ele>
        <time>2013-06-27T12:34:49Z</time>
      </trkpt>
      <trkpt lat="42.9394" lon="0.2597">
        <ele>1227.74</ele>
        <time>2013-06-27T12:36:40Z</time>
      </trkpt>
      <trkpt lat="42.9394" lon="0.25959">
        <ele>1228.7</ele>
        <time>2013-06-27T12:37:08Z</time>
      </trkpt>
      <trkpt lat="42.93943" lon="0.25966">
        <ele>1228.22</ele>
        <time>2013-06-27T12:37:53Z</time>
      </trkpt>
      <trkpt lat="42.93946" lon="0.25979">
        <ele>1228.7</ele>
        <time>2013-06-27T12:38:02Z</time>
      </trkpt>
      <trkpt lat="42.93944" lon="0.25987">
        <ele>1227.74</ele>
        <time>2013-06-27T12:38:51Z</time>
      </trkpt>
      <trkpt lat="42.93943" lon="0.25972">
        <ele>1228.22</ele>
        <time>2013-06-27T12:39:01Z</time>
      </trkpt>
      <trkpt lat="42.93941" lon="0.25961">
        <ele>1228.7</ele>
        <time>2013-06-27T12:39:13Z</time>
      </trkpt>
      <trkpt lat="42.93941" lon="0.25951">
        <ele>1229.18</ele>
        <time>2013-06-27T12:39:34Z</time>
      </trkpt>
      <trkpt lat="42.93938" lon="0.25942">
        <ele>1229.18</ele>
        <time>2013-06-27T12:40:20Z</time>
      </trkpt>
      <trkpt lat="42.93933" lon="0.2593">
        <ele>1229.66</ele>
        <time>2013-06-27T12:40:31Z</time>
      </trkpt>
      <trkpt lat="42.93932" lon="0.25917">
        <ele>1229.66</ele>
        <time>2013-06-27T12:40:42Z</time>
      </trkpt>
      <trkpt lat="42.9394" lon="0.25915">
        <ele>1230.62</ele>
        <time>2013-06-27T12:40:59Z</time>
      </trkpt>
      <trkpt lat="42.93942" lon="0.25904">
        <ele>1231.59</ele>
        <time>2013-06-27T12:41:20Z</time>
      </trkpt>
      <trkpt lat="42.93945" lon="0.25891">
        <ele>1232.55</ele>
        <time>2013-06-27T12:41:28Z</time>
      </trkpt>
      <trkpt lat="42.9395" lon="0.2588">
        <ele>1233.03</ele>
        <time>2013-06-27T12:41:38Z</time>
      </trkpt>
      <trkpt lat="42.93954" lon="0.25872">
        <ele>1233.51</ele>
        <time>2013-06-27T12:42:30Z</time>
      </trkpt>
      <trkpt lat="42.93958" lon="0.25862">
        <ele>1234.47</ele>
        <time>2013-06-27T12:42:39Z</time>
      </trkpt>
      <trkpt lat="42.93958" lon="0.25849">
        <ele>1235.43</ele>
        <time>2013-06-27T12:42:48Z</time>
      </trkpt>
      <trkpt lat="42.93957" lon="0.25836">
        <ele>1235.43</ele>
        <time>2013-06-27T12:42:56Z</time>
      </trkpt>
      <trkpt lat="42.93954" lon="0.25824">
        <ele>1235.43</ele>
        <time>2013-06-27T12:43:04Z</time>
      </trkpt>
      <trkpt lat="42.93951" lon="0.25812">
        <ele>1235.43</ele>
        <time>2013-06-27T12:43:13Z</time>
      </trkpt>
      <trkpt lat="42.93943" lon="0.25805">
        <ele>1235.91</ele>
        <time>2013-06-27T12:43:22Z</time>
      </trkpt>
      <trkpt lat="42.93937" lon="0.25796">
        <ele>1235.91</ele>
        <time>2013-06-27T12:43:32Z</time>
      </trkpt>
      <trkpt lat="42.93934" lon="0.25784">
        <ele>1236.39</ele>
        <time>2013-06-27T12:43:45Z</time>
      </trkpt>
      <trkpt lat="42.93931" lon="0.25771">
        <ele>1237.35</ele>
        <time>2013-06-27T12:43:54Z</time>
      </trkpt>
      <trkpt lat="42.93927" lon="0.25763">
        <ele>1237.83</ele>
        <time>2013-06-27T12:44:03Z</time>
      </trkpt>
      <trkpt lat="42.93921" lon="0.25756">
        <ele>1237.83</ele>
        <time>2013-06-27T12:44:30Z</time>
      </trkpt>
      <trkpt lat="42.93912" lon="0.25746">
        <ele>1237.35</ele>
        <time>2013-06-27T12:44:38Z</time>
      </trkpt>
      <trkpt lat="42.93904" lon="0.2574">
        <ele>1236.39</ele>
        <time>2013-06-27T12:44:45Z</time>
      </trkpt>
      <trkpt lat="42.93895" lon="0.25735">
        <ele>1235.91</ele>
        <time>2013-06-27T12:44:53Z</time>
      </trkpt>
      <trkpt lat="42.93887" lon="0.25727">
        <ele>1235.43</ele>
        <time>2013-06-27T12:45:00Z</time>
      </trkpt>
      <trkpt lat="42.93882" lon="0.2572">
        <ele>1235.43</ele>
        <time>2013-06-27T12:45:08Z</time>
      </trkpt>
      <trkpt lat="42.93882" lon="0.25729">
        <ele>1234.47</ele>
        <time>2013-06-27T12:46:50Z</time>
      </trkpt>
      <trkpt lat="42.93872" lon="0.25728">
        <ele>1234.47</ele>
        <time>2013-06-27T12:47:06Z</time>
      </trkpt>
      <trkpt lat="42.93871" lon="0.25738">
        <ele>1234.95</ele>
        <time>2013-06-27T12:47:19Z</time>
      </trkpt>
      <trkpt lat="42.93866" lon="0.25742">
        <ele>1234.95</ele>
        <time>2013-06-27T12:47:38Z</time>
      </trkpt>
      <trkpt lat="42.93858" lon="0.25752">
        <ele>1236.39</ele>
        <time>2013-06-27T12:47:50Z</time>
      </trkpt>
      <trkpt lat="42.93851" lon="0.2576">
        <ele>1236.87</ele>
        <time>2013-06-27T12:48:00Z</time>
      </trkpt>
      <trkpt lat="42.93843" lon="0.25768">
        <ele>1236.87</ele>
        <time>2013-06-27T12:48:10Z</time>
      </trkpt>
      <trkpt lat="42.9384" lon="0.25778">
        <ele>1236.87</ele>
        <time>2013-06-27T12:48:19Z</time>
      </trkpt>
      <trkpt lat="42.9384" lon="0.25789">
        <ele>1236.87</ele>
        <time>2013-06-27T12:48:29Z</time>
      </trkpt>
      <trkpt lat="42.9384" lon="0.25803">
        <ele>1237.35</ele>
        <time>2013-06-27T12:48:41Z</time>
      </trkpt>
      <trkpt lat="42.9384" lon="0.25816">
        <ele>1236.39</ele>
        <time>2013-06-27T12:48:51Z</time>
      </trkpt>
      <trkpt lat="42.93838" lon="0.25828">
        <ele>1235.91</ele>
        <time>2013-06-27T12:49:17Z</time>
      </trkpt>
      <trkpt lat="42.93841" lon="0.25834">
        <ele>1236.39</ele>
        <time>2013-06-27T12:49:55Z</time>
      </trkpt>
      <trkpt lat="42.93842" lon="0.25847">
        <ele>1236.39</ele>
        <time>2013-06-27T12:50:05Z</time>
      </trkpt>
      <trkpt lat="42.93845" lon="0.25858">
        <ele>1236.39</ele>
        <time>2013-06-27T12:50:14Z</time>
      </trkpt>
      <trkpt lat="42.93849" lon="0.25869">
        <ele>1235.43</ele>
        <time>2013-06-27T12:50:23Z</time>
      </trkpt>
      <trkpt lat="42.93855" lon="0.25878">
        <ele>1235.43</ele>
        <time>2013-06-27T12:50:32Z</time>
      </trkpt>
      <trkpt lat="42.93861" lon="0.25888">
        <ele>1235.43</ele>
        <time>2013-06-27T12:50:41Z</time>
      </trkpt>
      <trkpt lat="42.93865" lon="0.259">
        <ele>1234.95</ele>
        <time>2013-06-27T12:50:50Z</time>
      </trkpt>
      <trkpt lat="42.93869" lon="0.25912">
        <ele>1234.95</ele>
        <time>2013-06-27T12:50:59Z</time>
      </trkpt>
      <trkpt lat="42.93873" lon="0.25924">
        <ele>1234.95</ele>
        <time>2013-06-27T12:51:09Z</time>
      </trkpt>
      <trkpt lat="42.93878" lon="0.25934">
        <ele>1234.95</ele>
        <time>2013-06-27T12:51:19Z</time>
      </trkpt>
      <trkpt lat="42.93882" lon="0.25945">
        <ele>1234.95</ele>
        <time>2013-06-27T12:51:29Z</time>
      </trkpt>
      <trkpt lat="42.93887" lon="0.25957">
        <ele>1234.95</ele>
        <time>2013-06-27T12:51:39Z</time>
      </trkpt>
      <trkpt lat="42.93891" lon="0.25967">
        <ele>1235.91</ele>
        <time>2013-06-27T12:52:25Z</time>
      </trkpt>
      <trkpt lat="42.93894" lon="0.25967">
        <ele>1234.95</ele>
        <time>2013-06-27T12:53:11Z</time>
      </trkpt>
      <trkpt lat="42.93894" lon="0.25976">
        <ele>1235.43</ele>
        <time>2013-06-27T12:53:39Z</time>
      </trkpt>
      <trkpt lat="42.939" lon="0.25984">
        <ele>1234.47</ele>
        <time>2013-06-27T12:54:29Z</time>
      </trkpt>
      <trkpt lat="42.93897" lon="0.25993">
        <ele>1235.43</ele>
        <time>2013-06-27T12:54:52Z</time>
      </trkpt>
      <trkpt lat="42.93896" lon="0.26007">
        <ele>1234.95</ele>
        <time>2013-06-27T12:55:01Z</time>
      </trkpt>
      <trkpt lat="42.93895" lon="0.26019">
        <ele>1233.51</ele>
        <time>2013-06-27T12:55:10Z</time>
      </trkpt>
      <trkpt lat="42.93893" lon="0.26032">
        <ele>1233.03</ele>
        <time>2013-06-27T12:55:19Z</time>
      </trkpt>
      <trkpt lat="42.93891" lon="0.26045">
        <ele>1232.55</ele>
        <time>2013-06-27T12:55:28Z</time>
      </trkpt>
      <trkpt lat="42.93891" lon="0.26056">
        <ele>1232.55</ele>
        <time>2013-06-27T12:55:36Z</time>
      </trkpt>
      <trkpt lat="42.93893" lon="0.2607">
        <ele>1232.55</ele>
        <time>2013-06-27T12:55:45Z</time>
      </trkpt>
      <trkpt lat="42.93893" lon="0.26082">
        <ele>1232.55</ele>
        <time>2013-06-27T12:55:53Z</time>
      </trkpt>
      <trkpt lat="42.93893" lon="0.26095">
        <ele>1232.55</ele>
        <time>2013-06-27T12:56:02Z</time>
      </trkpt>
      <trkpt lat="42.93894" lon="0.26107">
        <ele>1233.03</ele>
        <time>2013-06-27T12:56:13Z</time>
      </trkpt>
      <trkpt lat="42.93893" lon="0.2612">
        <ele>1233.99</ele>
        <time>2013-06-27T12:56:22Z</time>
      </trkpt>
      <trkpt lat="42.9389" lon="0.26133">
        <ele>1234.47</ele>
        <time>2013-06-27T12:56:30Z</time>
      </trkpt>
      <trkpt lat="42.93886" lon="0.26144">
        <ele>1233.03</ele>
        <time>2013-06-27T12:56:38Z</time>
      </trkpt>
      <trkpt lat="42.93881" lon="0.26153">
        <ele>1231.11</ele>
        <time>2013-06-27T12:56:47Z</time>
      </trkpt>
      <trkpt lat="42.93875" lon="0.26164">
        <ele>1229.66</ele>
        <time>2013-06-27T12:56:57Z</time>
      </trkpt>
      <trkpt lat="42.93869" lon="0.26174">
        <ele>1229.18</ele>
        <time>2013-06-27T12:57:06Z</time>
      </trkpt>
      <trkpt lat="42.93865" lon="0.26186">
        <ele>1228.22</ele>
        <time>2013-06-27T12:57:15Z</time>
      </trkpt>
      <trkpt lat="42.93859" lon="0.26195">
        <ele>1226.78</ele>
        <time>2013-06-27T12:57:23Z</time>
      </trkpt>
      <trkpt lat="42.93852" lon="0.26206">
        <ele>1225.34</ele>
        <time>2013-06-27T12:57:33Z</time>
      </trkpt>
      <trkpt lat="42.93845" lon="0.26215">
        <ele>1223.42</ele>
        <time>2013-06-27T12:57:42Z</time>
      </trkpt>
      <trkpt lat="42.93839" lon="0.26225">
        <ele>1221.97</ele>
        <time>2013-06-27T12:57:51Z</time>
      </trkpt>
      <trkpt lat="42.93834" lon="0.26237">
        <ele>1221.49</ele>
        <time>2013-06-27T12:58:00Z</time>
      </trkpt>
      <trkpt lat="42.93832" lon="0.26248">
        <ele>1219.57</ele>
        <time>2013-06-27T12:58:09Z</time>
      </trkpt>
      <trkpt lat="42.93829" lon="0.26261">
        <ele>1218.13</ele>
        <time>2013-06-27T12:58:18Z</time>
      </trkpt>
      <trkpt lat="42.93825" lon="0.26274">
        <ele>1217.65</ele>
        <time>2013-06-27T12:58:27Z</time>
      </trkpt>
      <trkpt lat="42.9382" lon="0.26284">
        <ele>1217.17</ele>
        <time>2013-06-27T12:58:35Z</time>
      </trkpt>
      <trkpt lat="42.93817" lon="0.26297">
        <ele>1216.69</ele>
        <time>2013-06-27T12:58:44Z</time>
      </trkpt>
      <trkpt lat="42.93818" lon="0.2631">
        <ele>1215.24</ele>
        <time>2013-06-27T12:58:54Z</time>
      </trkpt>
      <trkpt lat="42.93823" lon="0.26321">
        <ele>1214.28</ele>
        <time>2013-06-27T12:59:03Z</time>
      </trkpt>
      <trkpt lat="42.93827" lon="0.26333">
        <ele>1213.32</ele>
        <time>2013-06-27T12:59:12Z</time>
      </trkpt>
      <trkpt lat="42.93827" lon="0.26345">
        <ele>1212.36</ele>
        <time>2013-06-27T12:59:21Z</time>
      </trkpt>
      <trkpt lat="42.93829" lon="0.26363">
        <ele>1210.92</ele>
        <time>2013-06-27T12:59:33Z</time>
      </trkpt>
      <trkpt lat="42.9383" lon="0.26377">
        <ele>1209.96</ele>
        <time>2013-06-27T12:59:43Z</time>
      </trkpt>
      <trkpt lat="42.93826" lon="0.26391">
        <ele>1208.51</ele>
        <time>2013-06-27T12:59:53Z</time>
      </trkpt>
      <trkpt lat="42.93826" lon="0.26404">
        <ele>1207.55</ele>
        <time>2013-06-27T13:00:02Z</time>
      </trkpt>
      <trkpt lat="42.93825" lon="0.26416">
        <ele>1207.07</ele>
        <time>2013-06-27T13:00:11Z</time>
      </trkpt>
      <trkpt lat="42.93822" lon="0.2643">
        <ele>1206.11</ele>
        <time>2013-06-27T13:00:20Z</time>
      </trkpt>
      <trkpt lat="42.93822" lon="0.26442">
        <ele>1205.63</ele>
        <time>2013-06-27T13:00:28Z</time>
      </trkpt>
      <trkpt lat="42.93824" lon="0.26455">
        <ele>1205.63</ele>
        <time>2013-06-27T13:00:37Z</time>
      </trkpt>
      <trkpt lat="42.93822" lon="0.26468">
        <ele>1204.19</ele>
        <time>2013-06-27T13:00:46Z</time>
      </trkpt>
      <trkpt lat="42.9382" lon="0.2648">
        <ele>1203.71</ele>
        <time>2013-06-27T13:00:55Z</time>
      </trkpt>
      <trkpt lat="42.93817" lon="0.26492">
        <ele>1203.23</ele>
        <time>2013-06-27T13:01:04Z</time>
      </trkpt>
      <trkpt lat="42.93813" lon="0.26504">
        <ele>1202.27</ele>
        <time>2013-06-27T13:01:13Z</time>
      </trkpt>
      <trkpt lat="42.93812" lon="0.26516">
        <ele>1200.82</ele>
        <time>2013-06-27T13:01:23Z</time>
      </trkpt>
      <trkpt lat="42.93812" lon="0.26528">
        <ele>1199.38</ele>
        <time>2013-06-27T13:01:33Z</time>
      </trkpt>
      <trkpt lat="42.93811" lon="0.2654">
        <ele>1199.38</ele>
        <time>2013-06-27T13:01:42Z</time>
      </trkpt>
      <trkpt lat="42.93811" lon="0.26552">
        <ele>1198.9</ele>
        <time>2013-06-27T13:01:52Z</time>
      </trkpt>
      <trkpt lat="42.93809" lon="0.26564">
        <ele>1197.94</ele>
        <time>2013-06-27T13:02:02Z</time>
      </trkpt>
      <trkpt lat="42.93808" lon="0.26576">
        <ele>1196.98</ele>
        <time>2013-06-27T13:02:11Z</time>
      </trkpt>
      <trkpt lat="42.93806" lon="0.26588">
        <ele>1196.5</ele>
        <time>2013-06-27T13:02:21Z</time>
      </trkpt>
      <trkpt lat="42.93803" lon="0.26601">
        <ele>1194.58</ele>
        <time>2013-06-27T13:02:31Z</time>
      </trkpt>
      <trkpt lat="42.93798" lon="0.26612">
        <ele>1193.13</ele>
        <time>2013-06-27T13:02:42Z</time>
      </trkpt>
      <trkpt lat="42.93791" lon="0.26621">
        <ele>1192.17</ele>
        <time>2013-06-27T13:02:52Z</time>
      </trkpt>
      <trkpt lat="42.93783" lon="0.26628">
        <ele>1190.73</ele>
        <time>2013-06-27T13:03:02Z</time>
      </trkpt>
      <trkpt lat="42.93776" lon="0.26637">
        <ele>1188.33</ele>
        <time>2013-06-27T13:03:13Z</time>
      </trkpt>
      <trkpt lat="42.9377" lon="0.26645">
        <ele>1187.37</ele>
        <time>2013-06-27T13:03:23Z</time>
      </trkpt>
      <trkpt lat="42.93763" lon="0.26654">
        <ele>1185.44</ele>
        <time>2013-06-27T13:03:34Z</time>
      </trkpt>
      <trkpt lat="42.93759" lon="0.26664">
        <ele>1184</ele>
        <time>2013-06-27T13:03:45Z</time>
      </trkpt>
      <trkpt lat="42.93752" lon="0.26671">
        <ele>1182.08</ele>
        <time>2013-06-27T13:04:19Z</time>
      </trkpt>
      <trkpt lat="42.9375" lon="0.26682">
        <ele>1180.64</ele>
        <time>2013-06-27T13:04:41Z</time>
      </trkpt>
      <trkpt lat="42.93743" lon="0.26691">
        <ele>1179.67</ele>
        <time>2013-06-27T13:04:51Z</time>
      </trkpt>
      <trkpt lat="42.93737" lon="0.26701">
        <ele>1178.71</ele>
        <time>2013-06-27T13:05:01Z</time>
      </trkpt>
      <trkpt lat="42.93735" lon="0.26707">
        <ele>1177.75</ele>
        <time>2013-06-27T13:05:26Z</time>
      </trkpt>
      <trkpt lat="42.93742" lon="0.26696">
        <ele>1178.71</ele>
        <time>2013-06-27T13:05:37Z</time>
      </trkpt>
      <trkpt lat="42.93749" lon="0.26686">
        <ele>1179.67</ele>
        <time>2013-06-27T13:05:48Z</time>
      </trkpt>
      <trkpt lat="42.93754" lon="0.26688">
        <ele>1181.12</ele>
        <time>2013-06-27T13:09:48Z</time>
      </trkpt>
      <trkpt lat="42.93751" lon="0.26701">
        <ele>1179.67</ele>
        <time>2013-06-27T13:09:57Z</time>
      </trkpt>
      <trkpt lat="42.93749" lon="0.26712">
        <ele>1178.71</ele>
        <time>2013-06-27T13:10:06Z</time>
      </trkpt>
      <trkpt lat="42.93741" lon="0.26723">
        <ele>1177.27</ele>
        <time>2013-06-27T13:10:15Z</time>
      </trkpt>
      <trkpt lat="42.93734" lon="0.26731">
        <ele>1176.31</ele>
        <time>2013-06-27T13:10:23Z</time>
      </trkpt>
      <trkpt lat="42.93727" lon="0.26739">
        <ele>1175.35</ele>
        <time>2013-06-27T13:10:31Z</time>
      </trkpt>
      <trkpt lat="42.93722" lon="0.26748">
        <ele>1174.87</ele>
        <time>2013-06-27T13:10:39Z</time>
      </trkpt>
      <trkpt lat="42.93718" lon="0.26758">
        <ele>1173.43</ele>
        <time>2013-06-27T13:10:48Z</time>
      </trkpt>
      <trkpt lat="42.93713" lon="0.2677">
        <ele>1172.47</ele>
        <time>2013-06-27T13:10:56Z</time>
      </trkpt>
      <trkpt lat="42.9371" lon="0.26781">
        <ele>1172.47</ele>
        <time>2013-06-27T13:11:04Z</time>
      </trkpt>
      <trkpt lat="42.93706" lon="0.26792">
        <ele>1171.5</ele>
        <time>2013-06-27T13:11:12Z</time>
      </trkpt>
      <trkpt lat="42.93702" lon="0.26804">
        <ele>1171.5</ele>
        <time>2013-06-27T13:11:21Z</time>
      </trkpt>
      <trkpt lat="42.93698" lon="0.26815">
        <ele>1171.02</ele>
        <time>2013-06-27T13:11:29Z</time>
      </trkpt>
      <trkpt lat="42.93694" lon="0.26826">
        <ele>1170.54</ele>
        <time>2013-06-27T13:11:37Z</time>
      </trkpt>
      <trkpt lat="42.9369" lon="0.26839">
        <ele>1170.06</ele>
        <time>2013-06-27T13:11:46Z</time>
      </trkpt>
      <trkpt lat="42.93687" lon="0.26851">
        <ele>1169.58</ele>
        <time>2013-06-27T13:11:55Z</time>
      </trkpt>
      <trkpt lat="42.93685" lon="0.26865">
        <ele>1170.06</ele>
        <time>2013-06-27T13:12:04Z</time>
      </trkpt>
      <trkpt lat="42.93685" lon="0.26878">
        <ele>1169.58</ele>
        <time>2013-06-27T13:12:13Z</time>
      </trkpt>
      <trkpt lat="42.93682" lon="0.26889">
        <ele>1170.06</ele>
        <time>2013-06-27T13:12:22Z</time>
      </trkpt>
      <trkpt lat="42.93681" lon="0.26902">
        <ele>1170.06</ele>
        <time>2013-06-27T13:12:31Z</time>
      </trkpt>
      <trkpt lat="42.9368" lon="0.26915">
        <ele>1170.06</ele>
        <time>2013-06-27T13:12:40Z</time>
      </trkpt>
      <trkpt lat="42.93681" lon="0.26928">
        <ele>1169.58</ele>
        <time>2013-06-27T13:12:47Z</time>
      </trkpt>
      <trkpt lat="42.93681" lon="0.26939">
        <ele>1169.58</ele>
        <time>2013-06-27T13:12:53Z</time>
      </trkpt>
      <trkpt lat="42.93681" lon="0.26951">
        <ele>1169.1</ele>
        <time>2013-06-27T13:12:58Z</time>
      </trkpt>
      <trkpt lat="42.93678" lon="0.26945">
        <ele>1168.62</ele>
        <time>2013-06-27T13:14:10Z</time>
      </trkpt>
      <trkpt lat="42.9368" lon="0.2695">
        <ele>1168.14</ele>
        <time>2013-06-27T13:14:40Z</time>
      </trkpt>
      <trkpt lat="42.93679" lon="0.26945">
        <ele>1169.1</ele>
        <time>2013-06-27T13:15:08Z</time>
      </trkpt>
      <trkpt lat="42.93679" lon="0.26946">
        <ele>1169.58</ele>
        <time>2013-06-27T13:15:19Z</time>
      </trkpt>
      <trkpt lat="42.9368" lon="0.26951">
        <ele>1168.62</ele>
        <time>2013-06-27T13:16:02Z</time>
      </trkpt>
      <trkpt lat="42.9368" lon="0.26962">
        <ele>1169.1</ele>
        <time>2013-06-27T13:16:51Z</time>
      </trkpt>
      <trkpt lat="42.93684" lon="0.26975">
        <ele>1168.14</ele>
        <time>2013-06-27T13:16:59Z</time>
      </trkpt>
      <trkpt lat="42.93686" lon="0.26988">
        <ele>1168.62</ele>
        <time>2013-06-27T13:17:07Z</time>
      </trkpt>
      <trkpt lat="42.93688" lon="0.27001">
        <ele>1168.62</ele>
        <time>2013-06-27T13:17:15Z</time>
      </trkpt>
      <trkpt lat="42.93691" lon="0.27014">
        <ele>1168.62</ele>
        <time>2013-06-27T13:17:23Z</time>
      </trkpt>
      <trkpt lat="42.93695" lon="0.27026">
        <ele>1168.62</ele>
        <time>2013-06-27T13:17:31Z</time>
      </trkpt>
      <trkpt lat="42.93699" lon="0.27037">
        <ele>1169.1</ele>
        <time>2013-06-27T13:17:39Z</time>
      </trkpt>
      <trkpt lat="42.93703" lon="0.27049">
        <ele>1168.62</ele>
        <time>2013-06-27T13:17:48Z</time>
      </trkpt>
      <trkpt lat="42.93708" lon="0.2706">
        <ele>1168.62</ele>
        <time>2013-06-27T13:17:57Z</time>
      </trkpt>
      <trkpt lat="42.93714" lon="0.2707">
        <ele>1168.62</ele>
        <time>2013-06-27T13:18:06Z</time>
      </trkpt>
      <trkpt lat="42.93721" lon="0.2708">
        <ele>1168.14</ele>
        <time>2013-06-27T13:18:15Z</time>
      </trkpt>
      <trkpt lat="42.93727" lon="0.2709">
        <ele>1168.14</ele>
        <time>2013-06-27T13:18:23Z</time>
      </trkpt>
      <trkpt lat="42.93732" lon="0.27101">
        <ele>1168.62</ele>
        <time>2013-06-27T13:18:40Z</time>
      </trkpt>
      <trkpt lat="42.93737" lon="0.27112">
        <ele>1167.66</ele>
        <time>2013-06-27T13:18:48Z</time>
      </trkpt>
      <trkpt lat="42.93743" lon="0.27123">
        <ele>1168.62</ele>
        <time>2013-06-27T13:18:56Z</time>
      </trkpt>
      <trkpt lat="42.93749" lon="0.27134">
        <ele>1168.62</ele>
        <time>2013-06-27T13:19:04Z</time>
      </trkpt>
      <trkpt lat="42.93756" lon="0.27143">
        <ele>1167.66</ele>
        <time>2013-06-27T13:19:12Z</time>
      </trkpt>
      <trkpt lat="42.93764" lon="0.27152">
        <ele>1167.66</ele>
        <time>2013-06-27T13:19:20Z</time>
      </trkpt>
      <trkpt lat="42.93771" lon="0.2716">
        <ele>1167.66</ele>
        <time>2013-06-27T13:19:28Z</time>
      </trkpt>
      <trkpt lat="42.93779" lon="0.27169">
        <ele>1166.7</ele>
        <time>2013-06-27T13:19:37Z</time>
      </trkpt>
      <trkpt lat="42.93786" lon="0.27177">
        <ele>1166.22</ele>
        <time>2013-06-27T13:19:46Z</time>
      </trkpt>
      <trkpt lat="42.93794" lon="0.27186">
        <ele>1164.77</ele>
        <time>2013-06-27T13:19:55Z</time>
      </trkpt>
      <trkpt lat="42.93802" lon="0.27193">
        <ele>1164.29</ele>
        <time>2013-06-27T13:20:04Z</time>
      </trkpt>
      <trkpt lat="42.9381" lon="0.27198">
        <ele>1163.33</ele>
        <time>2013-06-27T13:20:13Z</time>
      </trkpt>
      <trkpt lat="42.93818" lon="0.27204">
        <ele>1161.89</ele>
        <time>2013-06-27T13:20:21Z</time>
      </trkpt>
      <trkpt lat="42.93826" lon="0.27209">
        <ele>1160.45</ele>
        <time>2013-06-27T13:20:29Z</time>
      </trkpt>
      <trkpt lat="42.93834" lon="0.27213">
        <ele>1159.01</ele>
        <time>2013-06-27T13:20:39Z</time>
      </trkpt>
      <trkpt lat="42.93845" lon="0.27217">
        <ele>1158.05</ele>
        <time>2013-06-27T13:20:48Z</time>
      </trkpt>
      <trkpt lat="42.93852" lon="0.27225">
        <ele>1157.08</ele>
        <time>2013-06-27T13:20:56Z</time>
      </trkpt>
      <trkpt lat="42.93861" lon="0.2723">
        <ele>1156.6</ele>
        <time>2013-06-27T13:21:05Z</time>
      </trkpt>
      <trkpt lat="42.9387" lon="0.27234">
        <ele>1155.16</ele>
        <time>2013-06-27T13:21:14Z</time>
      </trkpt>
      <trkpt lat="42.93879" lon="0.27238">
        <ele>1154.2</ele>
        <time>2013-06-27T13:21:23Z</time>
      </trkpt>
      <trkpt lat="42.93888" lon="0.27242">
        <ele>1152.76</ele>
        <time>2013-06-27T13:21:32Z</time>
      </trkpt>
      <trkpt lat="42.93898" lon="0.27245">
        <ele>1151.32</ele>
        <time>2013-06-27T13:21:41Z</time>
      </trkpt>
      <trkpt lat="42.93908" lon="0.27249">
        <ele>1150.35</ele>
        <time>2013-06-27T13:21:50Z</time>
      </trkpt>
      <trkpt lat="42.93917" lon="0.27251">
        <ele>1148.91</ele>
        <time>2013-06-27T13:21:59Z</time>
      </trkpt>
      <trkpt lat="42.93927" lon="0.27253">
        <ele>1147.47</ele>
        <time>2013-06-27T13:22:08Z</time>
      </trkpt>
      <trkpt lat="42.93937" lon="0.27254">
        <ele>1145.55</ele>
        <time>2013-06-27T13:22:17Z</time>
      </trkpt>
      <trkpt lat="42.93946" lon="0.27256">
        <ele>1144.11</ele>
        <time>2013-06-27T13:22:26Z</time>
      </trkpt>
      <trkpt lat="42.93956" lon="0.27257">
        <ele>1142.66</ele>
        <time>2013-06-27T13:22:35Z</time>
      </trkpt>
      <trkpt lat="42.93965" lon="0.27259">
        <ele>1142.18</ele>
        <time>2013-06-27T13:22:43Z</time>
      </trkpt>
      <trkpt lat="42.93974" lon="0.27262">
        <ele>1140.26</ele>
        <time>2013-06-27T13:22:52Z</time>
      </trkpt>
      <trkpt lat="42.93983" lon="0.27264">
        <ele>1138.82</ele>
        <time>2013-06-27T13:23:01Z</time>
      </trkpt>
      <trkpt lat="42.93993" lon="0.27268">
        <ele>1137.38</ele>
        <time>2013-06-27T13:23:10Z</time>
      </trkpt>
      <trkpt lat="42.94001" lon="0.27274">
        <ele>1136.42</ele>
        <time>2013-06-27T13:23:19Z</time>
      </trkpt>
      <trkpt lat="42.9401" lon="0.27277">
        <ele>1134.49</ele>
        <time>2013-06-27T13:23:29Z</time>
      </trkpt>
      <trkpt lat="42.94018" lon="0.27284">
        <ele>1133.05</ele>
        <time>2013-06-27T13:23:39Z</time>
      </trkpt>
      <trkpt lat="42.94027" lon="0.2729">
        <ele>1131.61</ele>
        <time>2013-06-27T13:23:47Z</time>
      </trkpt>
      <trkpt lat="42.94035" lon="0.27296">
        <ele>1131.13</ele>
        <time>2013-06-27T13:23:54Z</time>
      </trkpt>
      <trkpt lat="42.94043" lon="0.27303">
        <ele>1128.73</ele>
        <time>2013-06-27T13:24:02Z</time>
      </trkpt>
      <trkpt lat="42.94051" lon="0.2731">
        <ele>1127.76</ele>
        <time>2013-06-27T13:24:11Z</time>
      </trkpt>
      <trkpt lat="42.94059" lon="0.27316">
        <ele>1126.8</ele>
        <time>2013-06-27T13:24:20Z</time>
      </trkpt>
      <trkpt lat="42.94068" lon="0.27322">
        <ele>1125.84</ele>
        <time>2013-06-27T13:24:29Z</time>
      </trkpt>
      <trkpt lat="42.94075" lon="0.2733">
        <ele>1124.4</ele>
        <time>2013-06-27T13:24:39Z</time>
      </trkpt>
      <trkpt lat="42.94079" lon="0.27343">
        <ele>1122.48</ele>
        <time>2013-06-27T13:24:48Z</time>
      </trkpt>
      <trkpt lat="42.94082" lon="0.27356">
        <ele>1122</ele>
        <time>2013-06-27T13:24:56Z</time>
      </trkpt>
      <trkpt lat="42.94083" lon="0.27368">
        <ele>1121.03</ele>
        <time>2013-06-27T13:25:05Z</time>
      </trkpt>
      <trkpt lat="42.9408" lon="0.27381">
        <ele>1120.07</ele>
        <time>2013-06-27T13:25:14Z</time>
      </trkpt>
      <trkpt lat="42.94078" lon="0.27393">
        <ele>1119.59</ele>
        <time>2013-06-27T13:25:22Z</time>
      </trkpt>
      <trkpt lat="42.94076" lon="0.27405">
        <ele>1119.59</ele>
        <time>2013-06-27T13:25:30Z</time>
      </trkpt>
      <trkpt lat="42.94074" lon="0.27417">
        <ele>1119.11</ele>
        <time>2013-06-27T13:25:38Z</time>
      </trkpt>
      <trkpt lat="42.94072" lon="0.27429">
        <ele>1118.63</ele>
        <time>2013-06-27T13:25:46Z</time>
      </trkpt>
      <trkpt lat="42.94072" lon="0.27442">
        <ele>1118.63</ele>
        <time>2013-06-27T13:25:55Z</time>
      </trkpt>
      <trkpt lat="42.94074" lon="0.27456">
        <ele>1118.15</ele>
        <time>2013-06-27T13:26:04Z</time>
      </trkpt>
      <trkpt lat="42.94075" lon="0.27469">
        <ele>1117.19</ele>
        <time>2013-06-27T13:26:13Z</time>
      </trkpt>
      <trkpt lat="42.94078" lon="0.27481">
        <ele>1116.71</ele>
        <time>2013-06-27T13:26:21Z</time>
      </trkpt>
      <trkpt lat="42.94077" lon="0.27494">
        <ele>1116.23</ele>
        <time>2013-06-27T13:26:29Z</time>
      </trkpt>
      <trkpt lat="42.94077" lon="0.27507">
        <ele>1115.27</ele>
        <time>2013-06-27T13:26:36Z</time>
      </trkpt>
      <trkpt lat="42.94078" lon="0.27519">
        <ele>1114.79</ele>
        <time>2013-06-27T13:26:42Z</time>
      </trkpt>
      <trkpt lat="42.9408" lon="0.27531">
        <ele>1114.31</ele>
        <time>2013-06-27T13:26:48Z</time>
      </trkpt>
      <trkpt lat="42.9408" lon="0.27542">
        <ele>1113.82</ele>
        <time>2013-06-27T13:26:58Z</time>
      </trkpt>
      <trkpt lat="42.94081" lon="0.27555">
        <ele>1113.34</ele>
        <time>2013-06-27T13:27:09Z</time>
      </trkpt>
      <trkpt lat="42.94083" lon="0.27568">
        <ele>1113.34</ele>
        <time>2013-06-27T13:27:16Z</time>
      </trkpt>
      <trkpt lat="42.94085" lon="0.27581">
        <ele>1111.9</ele>
        <time>2013-06-27T13:27:24Z</time>
      </trkpt>
      <trkpt lat="42.94086" lon="0.27593">
        <ele>1111.42</ele>
        <time>2013-06-27T13:27:32Z</time>
      </trkpt>
      <trkpt lat="42.94087" lon="0.27605">
        <ele>1110.94</ele>
        <time>2013-06-27T13:27:40Z</time>
      </trkpt>
      <trkpt lat="42.94089" lon="0.27618">
        <ele>1110.46</ele>
        <time>2013-06-27T13:27:48Z</time>
      </trkpt>
      <trkpt lat="42.94091" lon="0.2763">
        <ele>1109.98</ele>
        <time>2013-06-27T13:27:56Z</time>
      </trkpt>
      <trkpt lat="42.94093" lon="0.27643">
        <ele>1109.98</ele>
        <time>2013-06-27T13:28:04Z</time>
      </trkpt>
      <trkpt lat="42.94094" lon="0.27655">
        <ele>1109.5</ele>
        <time>2013-06-27T13:28:12Z</time>
      </trkpt>
      <trkpt lat="42.94096" lon="0.27668">
        <ele>1109.5</ele>
        <time>2013-06-27T13:28:20Z</time>
      </trkpt>
      <trkpt lat="42.94098" lon="0.2768">
        <ele>1108.54</ele>
        <time>2013-06-27T13:28:28Z</time>
      </trkpt>
      <trkpt lat="42.941" lon="0.27693">
        <ele>1108.54</ele>
        <time>2013-06-27T13:28:36Z</time>
      </trkpt>
      <trkpt lat="42.94101" lon="0.27706">
        <ele>1107.58</ele>
        <time>2013-06-27T13:28:44Z</time>
      </trkpt>
      <trkpt lat="42.94104" lon="0.27718">
        <ele>1107.1</ele>
        <time>2013-06-27T13:28:52Z</time>
      </trkpt>
      <trkpt lat="42.94105" lon="0.27732">
        <ele>1107.1</ele>
        <time>2013-06-27T13:29:00Z</time>
      </trkpt>
      <trkpt lat="42.94108" lon="0.27744">
        <ele>1107.1</ele>
        <time>2013-06-27T13:29:08Z</time>
      </trkpt>
      <trkpt lat="42.94111" lon="0.27757">
        <ele>1106.13</ele>
        <time>2013-06-27T13:29:16Z</time>
      </trkpt>
      <trkpt lat="42.94112" lon="0.27768">
        <ele>1105.65</ele>
        <time>2013-06-27T13:30:06Z</time>
      </trkpt>
      <trkpt lat="42.94116" lon="0.27779">
        <ele>1104.69</ele>
        <time>2013-06-27T13:30:29Z</time>
      </trkpt>
      <trkpt lat="42.94119" lon="0.27789">
        <ele>1105.17</ele>
        <time>2013-06-27T13:31:23Z</time>
      </trkpt>
      <trkpt lat="42.94122" lon="0.27803">
        <ele>1104.69</ele>
        <time>2013-06-27T13:31:30Z</time>
      </trkpt>
      <trkpt lat="42.94126" lon="0.27815">
        <ele>1104.69</ele>
        <time>2013-06-27T13:31:37Z</time>
      </trkpt>
      <trkpt lat="42.94131" lon="0.27825">
        <ele>1104.69</ele>
        <time>2013-06-27T13:31:44Z</time>
      </trkpt>
      <trkpt lat="42.94138" lon="0.27833">
        <ele>1104.69</ele>
        <time>2013-06-27T13:31:52Z</time>
      </trkpt>
      <trkpt lat="42.94144" lon="0.27843">
        <ele>1104.21</ele>
        <time>2013-06-27T13:32:00Z</time>
      </trkpt>
      <trkpt lat="42.94151" lon="0.27851">
        <ele>1104.21</ele>
        <time>2013-06-27T13:32:09Z</time>
      </trkpt>
      <trkpt lat="42.94159" lon="0.27858">
        <ele>1104.69</ele>
        <time>2013-06-27T13:32:18Z</time>
      </trkpt>
      <trkpt lat="42.9416" lon="0.27859">
        <ele>1103.25</ele>
        <time>2013-06-27T13:33:04Z</time>
      </trkpt>
      <trkpt lat="42.94168" lon="0.27866">
        <ele>1103.73</ele>
        <time>2013-06-27T13:33:13Z</time>
      </trkpt>
      <trkpt lat="42.94175" lon="0.27871">
        <ele>1103.73</ele>
        <time>2013-06-27T13:33:29Z</time>
      </trkpt>
      <trkpt lat="42.94184" lon="0.27877">
        <ele>1103.25</ele>
        <time>2013-06-27T13:33:36Z</time>
      </trkpt>
      <trkpt lat="42.94193" lon="0.2788">
        <ele>1102.77</ele>
        <time>2013-06-27T13:33:43Z</time>
      </trkpt>
      <trkpt lat="42.94202" lon="0.27887">
        <ele>1101.81</ele>
        <time>2013-06-27T13:33:50Z</time>
      </trkpt>
      <trkpt lat="42.9421" lon="0.27895">
        <ele>1101.33</ele>
        <time>2013-06-27T13:33:57Z</time>
      </trkpt>
      <trkpt lat="42.94216" lon="0.27905">
        <ele>1099.89</ele>
        <time>2013-06-27T13:34:03Z</time>
      </trkpt>
      <trkpt lat="42.94219" lon="0.27917">
        <ele>1099.4</ele>
        <time>2013-06-27T13:34:09Z</time>
      </trkpt>
      <trkpt lat="42.94216" lon="0.2793">
        <ele>1098.44</ele>
        <time>2013-06-27T13:34:16Z</time>
      </trkpt>
      <trkpt lat="42.94216" lon="0.27942">
        <ele>1097</ele>
        <time>2013-06-27T13:34:24Z</time>
      </trkpt>
      <trkpt lat="42.94219" lon="0.27955">
        <ele>1096.52</ele>
        <time>2013-06-27T13:34:32Z</time>
      </trkpt>
      <trkpt lat="42.94221" lon="0.27968">
        <ele>1096.04</ele>
        <time>2013-06-27T13:34:39Z</time>
      </trkpt>
      <trkpt lat="42.94224" lon="0.27981">
        <ele>1095.56</ele>
        <time>2013-06-27T13:34:47Z</time>
      </trkpt>
      <trkpt lat="42.94229" lon="0.27991">
        <ele>1094.6</ele>
        <time>2013-06-27T13:34:55Z</time>
      </trkpt>
      <trkpt lat="42.94233" lon="0.28">
        <ele>1094.12</ele>
        <time>2013-06-27T13:35:04Z</time>
      </trkpt>
      <trkpt lat="42.94232" lon="0.28013">
        <ele>1094.12</ele>
        <time>2013-06-27T13:35:12Z</time>
      </trkpt>
      <trkpt lat="42.94236" lon="0.28008">
        <ele>1093.64</ele>
        <time>2013-06-27T13:35:27Z</time>
      </trkpt>
      <trkpt lat="42.94241" lon="0.27996">
        <ele>1093.64</ele>
        <time>2013-06-27T13:35:39Z</time>
      </trkpt>
      <trkpt lat="42.94247" lon="0.27985">
        <ele>1093.16</ele>
        <time>2013-06-27T13:35:50Z</time>
      </trkpt>
      <trkpt lat="42.94251" lon="0.27972">
        <ele>1092.68</ele>
        <time>2013-06-27T13:35:58Z</time>
      </trkpt>
      <trkpt lat="42.94256" lon="0.27962">
        <ele>1092.68</ele>
        <time>2013-06-27T13:36:05Z</time>
      </trkpt>
      <trkpt lat="42.9426" lon="0.2795">
        <ele>1091.71</ele>
        <time>2013-06-27T13:36:13Z</time>
      </trkpt>
      <trkpt lat="42.9426" lon="0.27939">
        <ele>1091.23</ele>
        <time>2013-06-27T13:36:25Z</time>
      </trkpt>
      <trkpt lat="42.9426" lon="0.27937">
        <ele>1091.71</ele>
        <time>2013-06-27T13:37:56Z</time>
      </trkpt>
    </trkseg>
  </trk>
</gpx>